<?xml version="1.0" encoding="UTF-8" standalone="no" ?>
<gpx xmlns="http://www.topografix.com/GPX/1/1" xmlns:xsi="http://www.w3.org/2001/XMLSchema-instance" xsi:schemaLocation="http://www.topografix.com/GPX/1/1 http://www.topografix.com/GPX/1/1/gpx.xsd" version="1.1" creator="VisuGPX - https://www.visugpx.com">
  <metadata>
    <name>Soubès - cirque du bout du Monde</name>
    <desc><![CDATA[2017-06 - Soubès - cirque du bout du Monde - La Roque

[b]album[/b] : [url]https://goo.gl/photos/1GkFfpRGJ5JC7hZC9[/url]
[img]https://3.bp.blogspot.com/-g5LO_L3zOmY/WT7FCydz4XI/AAAAAAAAUt8/r9tcxOitMbUV3ztAjal84GnvUksJKY3yACLcB/s1600/2017-06-12_soubes_cirque-bout-du-monde_i.JPG[/img]
[b]Idées de randonnées dans la même région[/b]
Parcours : [url]https://www.visugpx.com/membres/24856/causses/larzac/[/url]
Photos : [url]https://jcvertygo.blogspot.com/p/larzac.html[/url]]]></desc>
  </metadata>
  <trk>
    <name><![CDATA[Soubès - cirque du bout du Monde_1]]></name>
    <trkseg>
      <trkpt lat="43.76733" lon="3.34841">
        <ele>251.2</ele>
        <time>2017-06-12T09:01:00Z</time>
      </trkpt>
      <trkpt lat="43.76735" lon="3.3484">
        <ele>251.2</ele>
        <time>2017-06-12T09:01:05Z</time>
      </trkpt>
      <trkpt lat="43.76734" lon="3.34844">
        <ele>251.2</ele>
        <time>2017-06-12T09:01:10Z</time>
      </trkpt>
      <trkpt lat="43.76734" lon="3.34848">
        <ele>251.2</ele>
        <time>2017-06-12T09:01:15Z</time>
      </trkpt>
      <trkpt lat="43.76735" lon="3.34857">
        <ele>251.84234558952</ele>
        <time>2017-06-12T09:01:37Z</time>
      </trkpt>
      <trkpt lat="43.76731" lon="3.34845">
        <ele>252.76033166359</ele>
        <time>2017-06-12T09:01:45Z</time>
      </trkpt>
      <trkpt lat="43.76732" lon="3.34842">
        <ele>252.76033166359</ele>
        <time>2017-06-12T09:02:03Z</time>
      </trkpt>
      <trkpt lat="43.76742" lon="3.34873">
        <ele>253.40647988117</ele>
        <time>2017-06-12T09:02:50Z</time>
      </trkpt>
      <trkpt lat="43.76737" lon="3.34852">
        <ele>254.3509827995</ele>
        <time>2017-06-12T09:03:10Z</time>
      </trkpt>
      <trkpt lat="43.76735" lon="3.34849">
        <ele>254.3509827995</ele>
        <time>2017-06-12T09:03:40Z</time>
      </trkpt>
      <trkpt lat="43.76741" lon="3.34882">
        <ele>255.55945602678</ele>
        <time>2017-06-12T09:04:20Z</time>
      </trkpt>
      <trkpt lat="43.76743" lon="3.34889">
        <ele>255.55945602678</ele>
        <time>2017-06-12T09:04:25Z</time>
      </trkpt>
      <trkpt lat="43.76746" lon="3.34909">
        <ele>256.66322914804</ele>
        <time>2017-06-12T09:04:42Z</time>
      </trkpt>
      <trkpt lat="43.76753" lon="3.34949">
        <ele>257.6290561574</ele>
        <time>2017-06-12T09:05:01Z</time>
      </trkpt>
      <trkpt lat="43.76862" lon="3.35111">
        <ele>261.18248381646</ele>
        <time>2017-06-12T09:07:39Z</time>
      </trkpt>
      <trkpt lat="43.76867" lon="3.35116">
        <ele>261.18248381646</ele>
        <time>2017-06-12T09:07:41Z</time>
      </trkpt>
      <trkpt lat="43.76869" lon="3.35117">
        <ele>261.18248381646</ele>
        <time>2017-06-12T09:07:41Z</time>
      </trkpt>
      <trkpt lat="43.76873" lon="3.35127">
        <ele>264.49763179756</ele>
        <time>2017-06-12T09:07:58Z</time>
      </trkpt>
      <trkpt lat="43.76878" lon="3.35139">
        <ele>267.58291551562</ele>
        <time>2017-06-12T09:07:58Z</time>
      </trkpt>
      <trkpt lat="43.76881" lon="3.35149">
        <ele>267.58291551562</ele>
        <time>2017-06-12T09:08:14Z</time>
      </trkpt>
      <trkpt lat="43.76882" lon="3.35171">
        <ele>271.26007027547</ele>
        <time>2017-06-12T09:08:22Z</time>
      </trkpt>
      <trkpt lat="43.76881" lon="3.35175">
        <ele>271.26007027547</ele>
        <time>2017-06-12T09:08:25Z</time>
      </trkpt>
      <trkpt lat="43.76879" lon="3.35182">
        <ele>271.26007027547</ele>
        <time>2017-06-12T09:08:30Z</time>
      </trkpt>
      <trkpt lat="43.76865" lon="3.35253">
        <ele>276.19122642329</ele>
        <time>2017-06-12T09:09:18Z</time>
      </trkpt>
      <trkpt lat="43.7687" lon="3.35286">
        <ele>281.2551405054</ele>
        <time>2017-06-12T09:09:40Z</time>
      </trkpt>
      <trkpt lat="43.7687" lon="3.35287">
        <ele>281.2551405054</ele>
        <time>2017-06-12T09:09:40Z</time>
      </trkpt>
      <trkpt lat="43.76873" lon="3.35307">
        <ele>286.15064221342</ele>
        <time>2017-06-12T09:10:00Z</time>
      </trkpt>
      <trkpt lat="43.76887" lon="3.35352">
        <ele>290.82241362467</ele>
        <time>2017-06-12T09:10:30Z</time>
      </trkpt>
      <trkpt lat="43.76889" lon="3.35361">
        <ele>290.82241362467</ele>
        <time>2017-06-12T09:10:35Z</time>
      </trkpt>
      <trkpt lat="43.7689" lon="3.35369">
        <ele>295.0126110629</ele>
        <time>2017-06-12T09:10:40Z</time>
      </trkpt>
      <trkpt lat="43.76888" lon="3.35376">
        <ele>295.0126110629</ele>
        <time>2017-06-12T09:10:45Z</time>
      </trkpt>
      <trkpt lat="43.76884" lon="3.35382">
        <ele>298.68040367889</ele>
        <time>2017-06-12T09:10:50Z</time>
      </trkpt>
      <trkpt lat="43.7688" lon="3.35388">
        <ele>298.68040367889</ele>
        <time>2017-06-12T09:10:55Z</time>
      </trkpt>
      <trkpt lat="43.76876" lon="3.35393">
        <ele>301.70205295982</ele>
        <time>2017-06-12T09:11:00Z</time>
      </trkpt>
      <trkpt lat="43.76873" lon="3.35399">
        <ele>301.70205295982</ele>
        <time>2017-06-12T09:11:05Z</time>
      </trkpt>
      <trkpt lat="43.76876" lon="3.3546">
        <ele>304.37504902953</ele>
        <time>2017-06-12T09:12:02Z</time>
      </trkpt>
      <trkpt lat="43.7689" lon="3.35496">
        <ele>306.8531619383</ele>
        <time>2017-06-12T09:12:26Z</time>
      </trkpt>
      <trkpt lat="43.76895" lon="3.35557">
        <ele>309.39470578899</ele>
        <time>2017-06-12T09:13:11Z</time>
      </trkpt>
      <trkpt lat="43.76897" lon="3.35566">
        <ele>309.39470578899</ele>
        <time>2017-06-12T09:13:13Z</time>
      </trkpt>
      <trkpt lat="43.76902" lon="3.35594">
        <ele>311.79741224122</ele>
        <time>2017-06-12T09:13:38Z</time>
      </trkpt>
      <trkpt lat="43.76902" lon="3.35607">
        <ele>313.92941342504</ele>
        <time>2017-06-12T09:13:43Z</time>
      </trkpt>
      <trkpt lat="43.76901" lon="3.35619">
        <ele>313.92941342504</ele>
        <time>2017-06-12T09:13:46Z</time>
      </trkpt>
      <trkpt lat="43.76909" lon="3.3565">
        <ele>316.11816666274</ele>
        <time>2017-06-12T09:14:12Z</time>
      </trkpt>
      <trkpt lat="43.7691" lon="3.35656">
        <ele>316.11816666274</ele>
        <time>2017-06-12T09:14:12Z</time>
      </trkpt>
      <trkpt lat="43.76916" lon="3.35664">
        <ele>318.22721503418</ele>
        <time>2017-06-12T09:14:28Z</time>
      </trkpt>
      <trkpt lat="43.76919" lon="3.35672">
        <ele>318.22721503418</ele>
        <time>2017-06-12T09:14:28Z</time>
      </trkpt>
      <trkpt lat="43.76924" lon="3.35685">
        <ele>320.29397247381</ele>
        <time>2017-06-12T09:14:39Z</time>
      </trkpt>
      <trkpt lat="43.76924" lon="3.35687">
        <ele>320.29397247381</ele>
        <time>2017-06-12T09:15:00Z</time>
      </trkpt>
      <trkpt lat="43.7693" lon="3.35707">
        <ele>322.42212935121</ele>
        <time>2017-06-12T09:15:19Z</time>
      </trkpt>
      <trkpt lat="43.7693" lon="3.35715">
        <ele>322.42212935121</ele>
        <time>2017-06-12T09:15:19Z</time>
      </trkpt>
      <trkpt lat="43.76921" lon="3.35799">
        <ele>324.42155492668</ele>
        <time>2017-06-12T09:16:12Z</time>
      </trkpt>
      <trkpt lat="43.76925" lon="3.35815">
        <ele>326.12098580185</ele>
        <time>2017-06-12T09:16:25Z</time>
      </trkpt>
      <trkpt lat="43.76926" lon="3.35854">
        <ele>327.83835240941</ele>
        <time>2017-06-12T09:17:00Z</time>
      </trkpt>
      <trkpt lat="43.76947" lon="3.3587">
        <ele>329.57130730042</ele>
        <time>2017-06-12T09:17:47Z</time>
      </trkpt>
      <trkpt lat="43.7695" lon="3.35873">
        <ele>329.57130730042</ele>
        <time>2017-06-12T09:17:48Z</time>
      </trkpt>
      <trkpt lat="43.76956" lon="3.35876">
        <ele>331.23480586129</ele>
        <time>2017-06-12T09:18:04Z</time>
      </trkpt>
      <trkpt lat="43.76957" lon="3.35882">
        <ele>331.23480586129</ele>
        <time>2017-06-12T09:18:09Z</time>
      </trkpt>
      <trkpt lat="43.76958" lon="3.35883">
        <ele>331.23480586129</ele>
        <time>2017-06-12T09:18:09Z</time>
      </trkpt>
      <trkpt lat="43.76966" lon="3.35909">
        <ele>333.29180016434</ele>
        <time>2017-06-12T09:18:42Z</time>
      </trkpt>
      <trkpt lat="43.76967" lon="3.35913">
        <ele>333.29180016434</ele>
        <time>2017-06-12T09:18:42Z</time>
      </trkpt>
      <trkpt lat="43.76975" lon="3.35963">
        <ele>335.63192161145</ele>
        <time>2017-06-12T09:19:39Z</time>
      </trkpt>
      <trkpt lat="43.76967" lon="3.36033">
        <ele>338.37648688496</ele>
        <time>2017-06-12T09:20:25Z</time>
      </trkpt>
      <trkpt lat="43.76972" lon="3.36047">
        <ele>340.91162022017</ele>
        <time>2017-06-12T09:20:33Z</time>
      </trkpt>
      <trkpt lat="43.76974" lon="3.36058">
        <ele>340.91162022017</ele>
        <time>2017-06-12T09:20:40Z</time>
      </trkpt>
      <trkpt lat="43.76954" lon="3.36145">
        <ele>344.78607532164</ele>
        <time>2017-06-12T09:22:01Z</time>
      </trkpt>
      <trkpt lat="43.76951" lon="3.36174">
        <ele>348.84185994949</ele>
        <time>2017-06-12T09:22:57Z</time>
      </trkpt>
      <trkpt lat="43.76952" lon="3.36181">
        <ele>348.84185994949</ele>
        <time>2017-06-12T09:22:57Z</time>
      </trkpt>
      <trkpt lat="43.76953" lon="3.36193">
        <ele>352.522213936</ele>
        <time>2017-06-12T09:23:10Z</time>
      </trkpt>
      <trkpt lat="43.76953" lon="3.36205">
        <ele>352.522213936</ele>
        <time>2017-06-12T09:23:14Z</time>
      </trkpt>
      <trkpt lat="43.76953" lon="3.36207">
        <ele>355.83043785018</ele>
        <time>2017-06-12T09:23:16Z</time>
      </trkpt>
      <trkpt lat="43.7694" lon="3.36247">
        <ele>359.47982581587</ele>
        <time>2017-06-12T09:24:14Z</time>
      </trkpt>
      <trkpt lat="43.76937" lon="3.36258">
        <ele>359.47982581587</ele>
        <time>2017-06-12T09:24:14Z</time>
      </trkpt>
      <trkpt lat="43.76937" lon="3.36269">
        <ele>363.01010130906</ele>
        <time>2017-06-12T09:24:38Z</time>
      </trkpt>
      <trkpt lat="43.76934" lon="3.36289">
        <ele>366.19020013983</ele>
        <time>2017-06-12T09:24:38Z</time>
      </trkpt>
      <trkpt lat="43.76935" lon="3.36303">
        <ele>369.05389935811</ele>
        <time>2017-06-12T09:24:48Z</time>
      </trkpt>
      <trkpt lat="43.76936" lon="3.36305">
        <ele>369.05389935811</ele>
        <time>2017-06-12T09:24:50Z</time>
      </trkpt>
      <trkpt lat="43.76939" lon="3.36312">
        <ele>369.05389935811</ele>
        <time>2017-06-12T09:24:55Z</time>
      </trkpt>
      <trkpt lat="43.7697" lon="3.3636">
        <ele>372.65834276828</ele>
        <time>2017-06-12T09:25:47Z</time>
      </trkpt>
      <trkpt lat="43.76989" lon="3.36378">
        <ele>376.31267725511</ele>
        <time>2017-06-12T09:26:22Z</time>
      </trkpt>
      <trkpt lat="43.77017" lon="3.36412">
        <ele>380.29415572231</ele>
        <time>2017-06-12T09:26:53Z</time>
      </trkpt>
      <trkpt lat="43.77024" lon="3.36418">
        <ele>380.29415572231</ele>
        <time>2017-06-12T09:27:03Z</time>
      </trkpt>
      <trkpt lat="43.77029" lon="3.36424">
        <ele>384.09561549569</ele>
        <time>2017-06-12T09:27:08Z</time>
      </trkpt>
      <trkpt lat="43.7709" lon="3.36481">
        <ele>388.2520535999</ele>
        <time>2017-06-12T09:28:23Z</time>
      </trkpt>
      <trkpt lat="43.77092" lon="3.36482">
        <ele>388.2520535999</ele>
        <time>2017-06-12T09:28:23Z</time>
      </trkpt>
      <trkpt lat="43.77101" lon="3.36483">
        <ele>391.88895254514</ele>
        <time>2017-06-12T09:28:31Z</time>
      </trkpt>
      <trkpt lat="43.77109" lon="3.36495">
        <ele>395.23756126018</ele>
        <time>2017-06-12T09:28:49Z</time>
      </trkpt>
      <trkpt lat="43.7711" lon="3.36496">
        <ele>395.23756126018</ele>
        <time>2017-06-12T09:28:56Z</time>
      </trkpt>
      <trkpt lat="43.77112" lon="3.36499">
        <ele>395.23756126018</ele>
        <time>2017-06-12T09:28:56Z</time>
      </trkpt>
      <trkpt lat="43.77125" lon="3.36536">
        <ele>398.25765123081</ele>
        <time>2017-06-12T09:29:54Z</time>
      </trkpt>
      <trkpt lat="43.77126" lon="3.36543">
        <ele>398.25765123081</ele>
        <time>2017-06-12T09:29:54Z</time>
      </trkpt>
      <trkpt lat="43.77145" lon="3.36607">
        <ele>401.94050266301</ele>
        <time>2017-06-12T09:31:01Z</time>
      </trkpt>
      <trkpt lat="43.77146" lon="3.36609">
        <ele>401.94050266301</ele>
        <time>2017-06-12T09:31:04Z</time>
      </trkpt>
      <trkpt lat="43.7715" lon="3.36614">
        <ele>401.94050266301</ele>
        <time>2017-06-12T09:31:11Z</time>
      </trkpt>
      <trkpt lat="43.77168" lon="3.36631">
        <ele>405.79481683414</ele>
        <time>2017-06-12T09:31:36Z</time>
      </trkpt>
      <trkpt lat="43.7718" lon="3.3664">
        <ele>409.3067633383</ele>
        <time>2017-06-12T09:32:02Z</time>
      </trkpt>
      <trkpt lat="43.77188" lon="3.36652">
        <ele>412.50204823844</ele>
        <time>2017-06-12T09:32:18Z</time>
      </trkpt>
      <trkpt lat="43.7719" lon="3.36652">
        <ele>412.50204823844</ele>
        <time>2017-06-12T09:32:19Z</time>
      </trkpt>
      <trkpt lat="43.7719" lon="3.36653">
        <ele>412.50204823844</ele>
        <time>2017-06-12T09:32:19Z</time>
      </trkpt>
      <trkpt lat="43.77212" lon="3.36684">
        <ele>415.66124326142</ele>
        <time>2017-06-12T09:32:56Z</time>
      </trkpt>
      <trkpt lat="43.77221" lon="3.36694">
        <ele>418.39716265995</ele>
        <time>2017-06-12T09:33:05Z</time>
      </trkpt>
      <trkpt lat="43.77238" lon="3.36716">
        <ele>420.80531390177</ele>
        <time>2017-06-12T09:33:32Z</time>
      </trkpt>
      <trkpt lat="43.77244" lon="3.36723">
        <ele>420.80531390177</ele>
        <time>2017-06-12T09:33:48Z</time>
      </trkpt>
      <trkpt lat="43.77248" lon="3.36726">
        <ele>422.85490767881</ele>
        <time>2017-06-12T09:33:50Z</time>
      </trkpt>
      <trkpt lat="43.77253" lon="3.36729">
        <ele>422.85490767881</ele>
        <time>2017-06-12T09:34:08Z</time>
      </trkpt>
      <trkpt lat="43.77275" lon="3.36739">
        <ele>424.41458941529</ele>
        <time>2017-06-12T09:35:01Z</time>
      </trkpt>
      <trkpt lat="43.77275" lon="3.3674">
        <ele>424.41458941529</ele>
        <time>2017-06-12T09:35:15Z</time>
      </trkpt>
      <trkpt lat="43.77285" lon="3.36735">
        <ele>425.02376054185</ele>
        <time>2017-06-12T09:41:39Z</time>
      </trkpt>
      <trkpt lat="43.77284" lon="3.36732">
        <ele>425.02376054185</ele>
        <time>2017-06-12T09:43:07Z</time>
      </trkpt>
      <trkpt lat="43.77286" lon="3.36738">
        <ele>425.02376054185</ele>
        <time>2017-06-12T09:43:22Z</time>
      </trkpt>
      <trkpt lat="43.77288" lon="3.36742">
        <ele>425.62662429058</ele>
        <time>2017-06-12T09:43:22Z</time>
      </trkpt>
      <trkpt lat="43.77298" lon="3.36755">
        <ele>426.1121284642</ele>
        <time>2017-06-12T09:43:43Z</time>
      </trkpt>
      <trkpt lat="43.77303" lon="3.36758">
        <ele>426.1121284642</ele>
        <time>2017-06-12T09:43:45Z</time>
      </trkpt>
      <trkpt lat="43.77317" lon="3.3676">
        <ele>426.59986495692</ele>
        <time>2017-06-12T09:44:02Z</time>
      </trkpt>
      <trkpt lat="43.77323" lon="3.36766">
        <ele>426.59986495692</ele>
        <time>2017-06-12T09:44:36Z</time>
      </trkpt>
      <trkpt lat="43.77352" lon="3.36779">
        <ele>426.84618916418</ele>
        <time>2017-06-12T09:45:01Z</time>
      </trkpt>
      <trkpt lat="43.77366" lon="3.36787">
        <ele>426.99511794405</ele>
        <time>2017-06-12T09:45:20Z</time>
      </trkpt>
      <trkpt lat="43.77371" lon="3.36788">
        <ele>426.99511794405</ele>
        <time>2017-06-12T09:45:25Z</time>
      </trkpt>
      <trkpt lat="43.77375" lon="3.36788">
        <ele>426.99511794405</ele>
        <time>2017-06-12T09:45:33Z</time>
      </trkpt>
      <trkpt lat="43.77376" lon="3.36789">
        <ele>427.04704205764</ele>
        <time>2017-06-12T09:45:35Z</time>
      </trkpt>
      <trkpt lat="43.77381" lon="3.36793">
        <ele>427.04704205764</ele>
        <time>2017-06-12T09:45:40Z</time>
      </trkpt>
      <trkpt lat="43.77399" lon="3.36798">
        <ele>426.97319293034</ele>
        <time>2017-06-12T09:46:00Z</time>
      </trkpt>
      <trkpt lat="43.77406" lon="3.36802">
        <ele>426.97319293034</ele>
        <time>2017-06-12T09:46:04Z</time>
      </trkpt>
      <trkpt lat="43.77422" lon="3.36808">
        <ele>426.80568328275</ele>
        <time>2017-06-12T09:46:19Z</time>
      </trkpt>
      <trkpt lat="43.77427" lon="3.36809">
        <ele>426.80568328275</ele>
        <time>2017-06-12T09:46:19Z</time>
      </trkpt>
      <trkpt lat="43.77434" lon="3.36808">
        <ele>426.5741357311</ele>
        <time>2017-06-12T09:46:31Z</time>
      </trkpt>
      <trkpt lat="43.77437" lon="3.36808">
        <ele>426.5741357311</ele>
        <time>2017-06-12T09:46:32Z</time>
      </trkpt>
      <trkpt lat="43.77483" lon="3.36811">
        <ele>426.71303040319</ele>
        <time>2017-06-12T09:47:27Z</time>
      </trkpt>
      <trkpt lat="43.77491" lon="3.36816">
        <ele>426.71303040319</ele>
        <time>2017-06-12T09:47:35Z</time>
      </trkpt>
      <trkpt lat="43.77493" lon="3.36819">
        <ele>426.85171926897</ele>
        <time>2017-06-12T09:47:41Z</time>
      </trkpt>
      <trkpt lat="43.77505" lon="3.3682">
        <ele>427.01133226843</ele>
        <time>2017-06-12T09:48:00Z</time>
      </trkpt>
      <trkpt lat="43.77532" lon="3.36823">
        <ele>427.3270912848</ele>
        <time>2017-06-12T09:48:32Z</time>
      </trkpt>
      <trkpt lat="43.77574" lon="3.36824">
        <ele>427.92324680886</ele>
        <time>2017-06-12T09:49:15Z</time>
      </trkpt>
      <trkpt lat="43.77583" lon="3.36826">
        <ele>427.92324680886</ele>
        <time>2017-06-12T09:49:20Z</time>
      </trkpt>
      <trkpt lat="43.77587" lon="3.36825">
        <ele>429.10171173773</ele>
        <time>2017-06-12T09:49:30Z</time>
      </trkpt>
      <trkpt lat="43.77589" lon="3.36828">
        <ele>429.10171173773</ele>
        <time>2017-06-12T09:50:50Z</time>
      </trkpt>
      <trkpt lat="43.77592" lon="3.36827">
        <ele>429.10171173773</ele>
        <time>2017-06-12T09:50:55Z</time>
      </trkpt>
      <trkpt lat="43.77595" lon="3.36826">
        <ele>431.77565835572</ele>
        <time>2017-06-12T09:51:00Z</time>
      </trkpt>
      <trkpt lat="43.776" lon="3.36825">
        <ele>431.77565835572</ele>
        <time>2017-06-12T09:51:05Z</time>
      </trkpt>
      <trkpt lat="43.77605" lon="3.36825">
        <ele>434.17098983929</ele>
        <time>2017-06-12T09:51:10Z</time>
      </trkpt>
      <trkpt lat="43.77609" lon="3.36827">
        <ele>434.17098983929</ele>
        <time>2017-06-12T09:51:15Z</time>
      </trkpt>
      <trkpt lat="43.77618" lon="3.36834">
        <ele>436.4240420614</ele>
        <time>2017-06-12T09:51:40Z</time>
      </trkpt>
      <trkpt lat="43.77637" lon="3.36846">
        <ele>438.50229088896</ele>
        <time>2017-06-12T09:52:00Z</time>
      </trkpt>
      <trkpt lat="43.77699" lon="3.36871">
        <ele>441.27029918614</ele>
        <time>2017-06-12T09:53:35Z</time>
      </trkpt>
      <trkpt lat="43.777" lon="3.36873">
        <ele>441.27029918614</ele>
        <time>2017-06-12T09:53:38Z</time>
      </trkpt>
      <trkpt lat="43.77704" lon="3.36875">
        <ele>441.27029918614</ele>
        <time>2017-06-12T09:53:38Z</time>
      </trkpt>
      <trkpt lat="43.77722" lon="3.36886">
        <ele>443.85321950214</ele>
        <time>2017-06-12T09:53:59Z</time>
      </trkpt>
      <trkpt lat="43.77731" lon="3.36897">
        <ele>446.20584159015</ele>
        <time>2017-06-12T09:54:15Z</time>
      </trkpt>
      <trkpt lat="43.77748" lon="3.36911">
        <ele>448.38768485309</ele>
        <time>2017-06-12T09:54:31Z</time>
      </trkpt>
      <trkpt lat="43.77773" lon="3.36923">
        <ele>450.35326680649</ele>
        <time>2017-06-12T09:54:57Z</time>
      </trkpt>
      <trkpt lat="43.77785" lon="3.36936">
        <ele>452.0753416579</ele>
        <time>2017-06-12T09:54:58Z</time>
      </trkpt>
      <trkpt lat="43.77809" lon="3.3695">
        <ele>453.60131606077</ele>
        <time>2017-06-12T09:55:18Z</time>
      </trkpt>
      <trkpt lat="43.77815" lon="3.36953">
        <ele>453.60131606077</ele>
        <time>2017-06-12T09:55:23Z</time>
      </trkpt>
      <trkpt lat="43.77826" lon="3.36957">
        <ele>454.97556037054</ele>
        <time>2017-06-12T09:55:35Z</time>
      </trkpt>
      <trkpt lat="43.77957" lon="3.37045">
        <ele>457.24883344005</ele>
        <time>2017-06-12T09:58:00Z</time>
      </trkpt>
      <trkpt lat="43.77966" lon="3.3706">
        <ele>459.2870104591</ele>
        <time>2017-06-12T09:58:08Z</time>
      </trkpt>
      <trkpt lat="43.77972" lon="3.37069">
        <ele>459.2870104591</ele>
        <time>2017-06-12T09:58:15Z</time>
      </trkpt>
      <trkpt lat="43.77973" lon="3.37069">
        <ele>461.16449808704</ele>
        <time>2017-06-12T09:58:15Z</time>
      </trkpt>
      <trkpt lat="43.7798" lon="3.37078">
        <ele>462.86410836255</ele>
        <time>2017-06-12T09:58:28Z</time>
      </trkpt>
      <trkpt lat="43.78012" lon="3.37119">
        <ele>464.48573367117</ele>
        <time>2017-06-12T09:59:02Z</time>
      </trkpt>
      <trkpt lat="43.7802" lon="3.37127">
        <ele>465.9201946083</ele>
        <time>2017-06-12T09:59:08Z</time>
      </trkpt>
      <trkpt lat="43.78031" lon="3.37144">
        <ele>467.19661092983</ele>
        <time>2017-06-12T09:59:24Z</time>
      </trkpt>
      <trkpt lat="43.78035" lon="3.37147">
        <ele>467.19661092983</ele>
        <time>2017-06-12T09:59:43Z</time>
      </trkpt>
      <trkpt lat="43.78055" lon="3.37173">
        <ele>468.41448668808</ele>
        <time>2017-06-12T09:59:50Z</time>
      </trkpt>
      <trkpt lat="43.78071" lon="3.37183">
        <ele>469.46420398494</ele>
        <time>2017-06-12T10:00:15Z</time>
      </trkpt>
      <trkpt lat="43.78085" lon="3.37201">
        <ele>470.47541361494</ele>
        <time>2017-06-12T10:00:34Z</time>
      </trkpt>
      <trkpt lat="43.78105" lon="3.37222">
        <ele>471.19326532841</ele>
        <time>2017-06-12T10:00:51Z</time>
      </trkpt>
      <trkpt lat="43.78107" lon="3.37224">
        <ele>471.19326532841</ele>
        <time>2017-06-12T10:00:51Z</time>
      </trkpt>
      <trkpt lat="43.78106" lon="3.37225">
        <ele>471.19326532841</ele>
        <time>2017-06-12T10:01:08Z</time>
      </trkpt>
      <trkpt lat="43.78121" lon="3.37229">
        <ele>471.56993785533</ele>
        <time>2017-06-12T10:01:37Z</time>
      </trkpt>
      <trkpt lat="43.78133" lon="3.37247">
        <ele>471.73512756378</ele>
        <time>2017-06-12T10:01:54Z</time>
      </trkpt>
      <trkpt lat="43.78146" lon="3.37263">
        <ele>471.67970951869</ele>
        <time>2017-06-12T10:02:05Z</time>
      </trkpt>
      <trkpt lat="43.78179" lon="3.37295">
        <ele>471.28039349624</ele>
        <time>2017-06-12T10:02:53Z</time>
      </trkpt>
      <trkpt lat="43.78183" lon="3.37301">
        <ele>471.28039349624</ele>
        <time>2017-06-12T10:02:57Z</time>
      </trkpt>
      <trkpt lat="43.78188" lon="3.37303">
        <ele>470.78442834038</ele>
        <time>2017-06-12T10:02:57Z</time>
      </trkpt>
      <trkpt lat="43.78215" lon="3.3732">
        <ele>470.24796683364</ele>
        <time>2017-06-12T10:03:32Z</time>
      </trkpt>
      <trkpt lat="43.78218" lon="3.37321">
        <ele>470.24796683364</ele>
        <time>2017-06-12T10:03:32Z</time>
      </trkpt>
      <trkpt lat="43.78228" lon="3.37325">
        <ele>469.57881808067</ele>
        <time>2017-06-12T10:03:44Z</time>
      </trkpt>
      <trkpt lat="43.78229" lon="3.37326">
        <ele>469.57881808067</ele>
        <time>2017-06-12T10:03:49Z</time>
      </trkpt>
      <trkpt lat="43.7823" lon="3.37329">
        <ele>469.57881808067</ele>
        <time>2017-06-12T10:03:49Z</time>
      </trkpt>
      <trkpt lat="43.78259" lon="3.37364">
        <ele>468.69184146158</ele>
        <time>2017-06-12T10:04:28Z</time>
      </trkpt>
      <trkpt lat="43.78304" lon="3.37383">
        <ele>467.19141015076</ele>
        <time>2017-06-12T10:05:07Z</time>
      </trkpt>
      <trkpt lat="43.78294" lon="3.37382">
        <ele>465.73642190381</ele>
        <time>2017-06-12T10:05:25Z</time>
      </trkpt>
      <trkpt lat="43.78251" lon="3.37401">
        <ele>463.97089161713</ele>
        <time>2017-06-12T10:06:01Z</time>
      </trkpt>
      <trkpt lat="43.78251" lon="3.37401">
        <ele>463.97089161713</ele>
        <time>2017-06-12T10:06:01Z</time>
      </trkpt>
      <trkpt lat="43.78249" lon="3.37399">
        <ele>463.97089161713</ele>
        <time>2017-06-12T10:06:05Z</time>
      </trkpt>
      <trkpt lat="43.78243" lon="3.37393">
        <ele>462.12807560909</ele>
        <time>2017-06-12T10:06:24Z</time>
      </trkpt>
      <trkpt lat="43.78239" lon="3.37387">
        <ele>462.12807560909</ele>
        <time>2017-06-12T10:06:24Z</time>
      </trkpt>
      <trkpt lat="43.78216" lon="3.37362">
        <ele>460.04923717718</ele>
        <time>2017-06-12T10:06:56Z</time>
      </trkpt>
      <trkpt lat="43.78195" lon="3.37358">
        <ele>457.9049729757</ele>
        <time>2017-06-12T10:07:23Z</time>
      </trkpt>
      <trkpt lat="43.78174" lon="3.37355">
        <ele>455.76680294284</ele>
        <time>2017-06-12T10:07:36Z</time>
      </trkpt>
      <trkpt lat="43.78173" lon="3.37376">
        <ele>452.96556887272</ele>
        <time>2017-06-12T10:08:16Z</time>
      </trkpt>
      <trkpt lat="43.78172" lon="3.37377">
        <ele>452.96556887272</ele>
        <time>2017-06-12T10:08:16Z</time>
      </trkpt>
      <trkpt lat="43.78248" lon="3.37446">
        <ele>448.96949913885</ele>
        <time>2017-06-12T10:10:01Z</time>
      </trkpt>
      <trkpt lat="43.78265" lon="3.37443">
        <ele>444.45661785349</ele>
        <time>2017-06-12T10:10:44Z</time>
      </trkpt>
      <trkpt lat="43.78266" lon="3.37443">
        <ele>444.45661785349</ele>
        <time>2017-06-12T10:10:47Z</time>
      </trkpt>
      <trkpt lat="43.78262" lon="3.37448">
        <ele>444.45661785349</ele>
        <time>2017-06-12T10:10:59Z</time>
      </trkpt>
      <trkpt lat="43.78268" lon="3.37462">
        <ele>440.08505256317</ele>
        <time>2017-06-12T10:11:14Z</time>
      </trkpt>
      <trkpt lat="43.78284" lon="3.37488">
        <ele>436.00259825794</ele>
        <time>2017-06-12T10:11:30Z</time>
      </trkpt>
      <trkpt lat="43.78308" lon="3.37527">
        <ele>431.97033390575</ele>
        <time>2017-06-12T10:12:10Z</time>
      </trkpt>
      <trkpt lat="43.78308" lon="3.37528">
        <ele>431.97033390575</ele>
        <time>2017-06-12T10:12:10Z</time>
      </trkpt>
      <trkpt lat="43.78311" lon="3.37536">
        <ele>431.97033390575</ele>
        <time>2017-06-12T10:12:29Z</time>
      </trkpt>
      <trkpt lat="43.78311" lon="3.37536">
        <ele>431.97033390575</ele>
        <time>2017-06-12T10:12:29Z</time>
      </trkpt>
      <trkpt lat="43.78314" lon="3.37548">
        <ele>428.24207477238</ele>
        <time>2017-06-12T10:12:44Z</time>
      </trkpt>
      <trkpt lat="43.78313" lon="3.3754">
        <ele>428.24207477238</ele>
        <time>2017-06-12T10:12:46Z</time>
      </trkpt>
      <trkpt lat="43.7831" lon="3.37538">
        <ele>424.67707109546</ele>
        <time>2017-06-12T10:13:02Z</time>
      </trkpt>
      <trkpt lat="43.78289" lon="3.37583">
        <ele>420.75500349539</ele>
        <time>2017-06-12T10:13:22Z</time>
      </trkpt>
      <trkpt lat="43.78295" lon="3.37591">
        <ele>420.75500349539</ele>
        <time>2017-06-12T10:13:25Z</time>
      </trkpt>
      <trkpt lat="43.78307" lon="3.37602">
        <ele>416.57093307802</ele>
        <time>2017-06-12T10:13:35Z</time>
      </trkpt>
      <trkpt lat="43.78313" lon="3.37608">
        <ele>416.57093307802</ele>
        <time>2017-06-12T10:13:40Z</time>
      </trkpt>
      <trkpt lat="43.78324" lon="3.37615">
        <ele>412.60242534401</ele>
        <time>2017-06-12T10:13:50Z</time>
      </trkpt>
      <trkpt lat="43.78328" lon="3.37621">
        <ele>412.60242534401</ele>
        <time>2017-06-12T10:13:55Z</time>
      </trkpt>
      <trkpt lat="43.78333" lon="3.37632">
        <ele>408.8298107934</ele>
        <time>2017-06-12T10:14:05Z</time>
      </trkpt>
      <trkpt lat="43.78334" lon="3.3763">
        <ele>408.8298107934</ele>
        <time>2017-06-12T10:14:10Z</time>
      </trkpt>
      <trkpt lat="43.78334" lon="3.37629">
        <ele>408.8298107934</ele>
        <time>2017-06-12T10:14:20Z</time>
      </trkpt>
      <trkpt lat="43.78336" lon="3.37625">
        <ele>408.8298107934</ele>
        <time>2017-06-12T10:14:37Z</time>
      </trkpt>
      <trkpt lat="43.78338" lon="3.37625">
        <ele>408.8298107934</ele>
        <time>2017-06-12T10:14:40Z</time>
      </trkpt>
      <trkpt lat="43.78361" lon="3.37638">
        <ele>404.47014644916</ele>
        <time>2017-06-12T10:15:01Z</time>
      </trkpt>
      <trkpt lat="43.78362" lon="3.37639">
        <ele>404.47014644916</ele>
        <time>2017-06-12T10:15:01Z</time>
      </trkpt>
      <trkpt lat="43.78367" lon="3.3764">
        <ele>404.47014644916</ele>
        <time>2017-06-12T10:15:09Z</time>
      </trkpt>
      <trkpt lat="43.78368" lon="3.37642">
        <ele>404.47014644916</ele>
        <time>2017-06-12T10:15:10Z</time>
      </trkpt>
      <trkpt lat="43.78382" lon="3.37648">
        <ele>400.21161157947</ele>
        <time>2017-06-12T10:15:28Z</time>
      </trkpt>
      <trkpt lat="43.78403" lon="3.37664">
        <ele>396.08588743887</ele>
        <time>2017-06-12T10:16:11Z</time>
      </trkpt>
      <trkpt lat="43.78406" lon="3.37668">
        <ele>396.08588743887</ele>
        <time>2017-06-12T10:16:27Z</time>
      </trkpt>
      <trkpt lat="43.78409" lon="3.37671">
        <ele>396.08588743887</ele>
        <time>2017-06-12T10:16:31Z</time>
      </trkpt>
      <trkpt lat="43.78408" lon="3.3768">
        <ele>392.33775120631</ele>
        <time>2017-06-12T10:16:51Z</time>
      </trkpt>
      <trkpt lat="43.78407" lon="3.37692">
        <ele>392.33775120631</ele>
        <time>2017-06-12T10:16:51Z</time>
      </trkpt>
      <trkpt lat="43.7842" lon="3.37708">
        <ele>388.87551829265</ele>
        <time>2017-06-12T10:17:10Z</time>
      </trkpt>
      <trkpt lat="43.78428" lon="3.37711">
        <ele>388.87551829265</ele>
        <time>2017-06-12T10:17:16Z</time>
      </trkpt>
      <trkpt lat="43.78474" lon="3.37763">
        <ele>384.89250522112</ele>
        <time>2017-06-12T10:18:24Z</time>
      </trkpt>
      <trkpt lat="43.7848" lon="3.37768">
        <ele>384.89250522112</ele>
        <time>2017-06-12T10:18:24Z</time>
      </trkpt>
      <trkpt lat="43.78488" lon="3.37784">
        <ele>381.32849906938</ele>
        <time>2017-06-12T10:18:40Z</time>
      </trkpt>
      <trkpt lat="43.7849" lon="3.37789">
        <ele>381.32849906938</ele>
        <time>2017-06-12T10:18:49Z</time>
      </trkpt>
      <trkpt lat="43.78492" lon="3.37786">
        <ele>381.32849906938</ele>
        <time>2017-06-12T10:18:58Z</time>
      </trkpt>
      <trkpt lat="43.78499" lon="3.37786">
        <ele>378.17362946405</ele>
        <time>2017-06-12T10:19:05Z</time>
      </trkpt>
      <trkpt lat="43.78509" lon="3.37808">
        <ele>375.54695532112</ele>
        <time>2017-06-12T10:19:22Z</time>
      </trkpt>
      <trkpt lat="43.78512" lon="3.37816">
        <ele>375.54695532112</ele>
        <time>2017-06-12T10:19:22Z</time>
      </trkpt>
      <trkpt lat="43.78532" lon="3.37851">
        <ele>373.34080044802</ele>
        <time>2017-06-12T10:19:49Z</time>
      </trkpt>
      <trkpt lat="43.78539" lon="3.37857">
        <ele>373.34080044802</ele>
        <time>2017-06-12T10:20:08Z</time>
      </trkpt>
      <trkpt lat="43.7854" lon="3.37861">
        <ele>371.46830691415</ele>
        <time>2017-06-12T10:20:08Z</time>
      </trkpt>
      <trkpt lat="43.78541" lon="3.37883">
        <ele>369.87657956497</ele>
        <time>2017-06-12T10:20:44Z</time>
      </trkpt>
      <trkpt lat="43.7854" lon="3.37883">
        <ele>369.87657956497</ele>
        <time>2017-06-12T10:20:44Z</time>
      </trkpt>
      <trkpt lat="43.78518" lon="3.37867">
        <ele>368.50112686129</ele>
        <time>2017-06-12T10:21:15Z</time>
      </trkpt>
      <trkpt lat="43.78518" lon="3.37867">
        <ele>368.50112686129</ele>
        <time>2017-06-12T10:21:15Z</time>
      </trkpt>
      <trkpt lat="43.78504" lon="3.37877">
        <ele>367.46867683392</ele>
        <time>2017-06-12T10:21:31Z</time>
      </trkpt>
      <trkpt lat="43.78479" lon="3.37912">
        <ele>366.73692584309</ele>
        <time>2017-06-12T10:22:07Z</time>
      </trkpt>
      <trkpt lat="43.78457" lon="3.37906">
        <ele>366.5394436187</ele>
        <time>2017-06-12T10:22:41Z</time>
      </trkpt>
      <trkpt lat="43.78456" lon="3.37906">
        <ele>366.5394436187</ele>
        <time>2017-06-12T10:22:41Z</time>
      </trkpt>
      <trkpt lat="43.78464" lon="3.37903">
        <ele>366.5394436187</ele>
        <time>2017-06-12T10:23:15Z</time>
      </trkpt>
      <trkpt lat="43.7843" lon="3.37943">
        <ele>366.39921218587</ele>
        <time>2017-06-12T10:24:06Z</time>
      </trkpt>
      <trkpt lat="43.78426" lon="3.37986">
        <ele>366.49363557997</ele>
        <time>2017-06-12T10:24:37Z</time>
      </trkpt>
      <trkpt lat="43.78426" lon="3.37987">
        <ele>366.49363557997</ele>
        <time>2017-06-12T10:24:56Z</time>
      </trkpt>
      <trkpt lat="43.78425" lon="3.37994">
        <ele>366.49363557997</ele>
        <time>2017-06-12T10:24:59Z</time>
      </trkpt>
      <trkpt lat="43.78425" lon="3.3809">
        <ele>366.72689801996</ele>
        <time>2017-06-12T10:26:09Z</time>
      </trkpt>
      <trkpt lat="43.78415" lon="3.38108">
        <ele>367.02415038542</ele>
        <time>2017-06-12T10:26:25Z</time>
      </trkpt>
      <trkpt lat="43.78405" lon="3.38131">
        <ele>367.34461949031</ele>
        <time>2017-06-12T10:26:46Z</time>
      </trkpt>
      <trkpt lat="43.78402" lon="3.38133">
        <ele>367.34461949031</ele>
        <time>2017-06-12T10:26:47Z</time>
      </trkpt>
      <trkpt lat="43.78395" lon="3.38154">
        <ele>367.78012647956</ele>
        <time>2017-06-12T10:27:02Z</time>
      </trkpt>
      <trkpt lat="43.78397" lon="3.38163">
        <ele>367.78012647956</ele>
        <time>2017-06-12T10:27:05Z</time>
      </trkpt>
      <trkpt lat="43.78384" lon="3.38196">
        <ele>368.25688459595</ele>
        <time>2017-06-12T10:27:35Z</time>
      </trkpt>
      <trkpt lat="43.78382" lon="3.38204">
        <ele>368.25688459595</ele>
        <time>2017-06-12T10:27:38Z</time>
      </trkpt>
      <trkpt lat="43.78381" lon="3.38233">
        <ele>368.93700601301</ele>
        <time>2017-06-12T10:27:52Z</time>
      </trkpt>
      <trkpt lat="43.78382" lon="3.38237">
        <ele>368.93700601301</ele>
        <time>2017-06-12T10:28:00Z</time>
      </trkpt>
      <trkpt lat="43.78397" lon="3.38255">
        <ele>369.72516255445</ele>
        <time>2017-06-12T10:28:15Z</time>
      </trkpt>
      <trkpt lat="43.78413" lon="3.38258">
        <ele>370.64807406735</ele>
        <time>2017-06-12T10:28:34Z</time>
      </trkpt>
      <trkpt lat="43.78435" lon="3.38279">
        <ele>371.67255189273</ele>
        <time>2017-06-12T10:29:02Z</time>
      </trkpt>
      <trkpt lat="43.78438" lon="3.38318">
        <ele>373.44499563679</ele>
        <time>2017-06-12T10:30:57Z</time>
      </trkpt>
      <trkpt lat="43.78443" lon="3.38319">
        <ele>373.44499563679</ele>
        <time>2017-06-12T10:31:02Z</time>
      </trkpt>
      <trkpt lat="43.78444" lon="3.3832">
        <ele>373.44499563679</ele>
        <time>2017-06-12T10:31:05Z</time>
      </trkpt>
      <trkpt lat="43.7845" lon="3.38319">
        <ele>375.30855183341</ele>
        <time>2017-06-12T10:31:12Z</time>
      </trkpt>
      <trkpt lat="43.78461" lon="3.38315">
        <ele>377.23096473374</ele>
        <time>2017-06-12T10:31:35Z</time>
      </trkpt>
      <trkpt lat="43.78431" lon="3.38348">
        <ele>379.67233425136</ele>
        <time>2017-06-12T10:32:22Z</time>
      </trkpt>
      <trkpt lat="43.7843" lon="3.38352">
        <ele>379.67233425136</ele>
        <time>2017-06-12T10:32:26Z</time>
      </trkpt>
      <trkpt lat="43.78428" lon="3.38363">
        <ele>382.40918363675</ele>
        <time>2017-06-12T10:32:38Z</time>
      </trkpt>
      <trkpt lat="43.78415" lon="3.38395">
        <ele>385.46441735303</ele>
        <time>2017-06-12T10:33:01Z</time>
      </trkpt>
      <trkpt lat="43.7841" lon="3.3842">
        <ele>389.20446995395</ele>
        <time>2017-06-12T10:33:52Z</time>
      </trkpt>
      <trkpt lat="43.78414" lon="3.38426">
        <ele>389.20446995395</ele>
        <time>2017-06-12T10:33:52Z</time>
      </trkpt>
      <trkpt lat="43.78413" lon="3.38425">
        <ele>389.20446995395</ele>
        <time>2017-06-12T10:34:04Z</time>
      </trkpt>
      <trkpt lat="43.78409" lon="3.38421">
        <ele>393.10252036399</ele>
        <time>2017-06-12T10:34:04Z</time>
      </trkpt>
      <trkpt lat="43.78412" lon="3.38423">
        <ele>393.10252036399</ele>
        <time>2017-06-12T10:34:43Z</time>
      </trkpt>
      <trkpt lat="43.78406" lon="3.38439">
        <ele>397.72231206948</ele>
        <time>2017-06-12T10:35:00Z</time>
      </trkpt>
      <trkpt lat="43.78405" lon="3.38445">
        <ele>397.72231206948</ele>
        <time>2017-06-12T10:35:08Z</time>
      </trkpt>
      <trkpt lat="43.78394" lon="3.38476">
        <ele>402.67655495511</ele>
        <time>2017-06-12T10:35:35Z</time>
      </trkpt>
      <trkpt lat="43.78391" lon="3.38484">
        <ele>402.67655495511</ele>
        <time>2017-06-12T10:35:37Z</time>
      </trkpt>
      <trkpt lat="43.78387" lon="3.38495">
        <ele>407.69227858381</ele>
        <time>2017-06-12T10:35:53Z</time>
      </trkpt>
      <trkpt lat="43.78382" lon="3.38503">
        <ele>407.69227858381</ele>
        <time>2017-06-12T10:35:53Z</time>
      </trkpt>
      <trkpt lat="43.78379" lon="3.38508">
        <ele>412.81939345001</ele>
        <time>2017-06-12T10:36:04Z</time>
      </trkpt>
      <trkpt lat="43.78348" lon="3.38618">
        <ele>419.21388395832</ele>
        <time>2017-06-12T10:37:27Z</time>
      </trkpt>
      <trkpt lat="43.78345" lon="3.38634">
        <ele>425.34966746034</ele>
        <time>2017-06-12T10:37:48Z</time>
      </trkpt>
      <trkpt lat="43.78342" lon="3.38643">
        <ele>425.34966746034</ele>
        <time>2017-06-12T10:37:48Z</time>
      </trkpt>
      <trkpt lat="43.78338" lon="3.38654">
        <ele>431.41357845301</ele>
        <time>2017-06-12T10:38:02Z</time>
      </trkpt>
      <trkpt lat="43.78338" lon="3.38692">
        <ele>437.08941630576</ele>
        <time>2017-06-12T10:38:29Z</time>
      </trkpt>
      <trkpt lat="43.78347" lon="3.38729">
        <ele>442.57576416609</ele>
        <time>2017-06-12T10:38:56Z</time>
      </trkpt>
      <trkpt lat="43.7835" lon="3.38735">
        <ele>442.57576416609</ele>
        <time>2017-06-12T10:38:59Z</time>
      </trkpt>
      <trkpt lat="43.78351" lon="3.38736">
        <ele>442.57576416609</ele>
        <time>2017-06-12T10:39:00Z</time>
      </trkpt>
      <trkpt lat="43.78356" lon="3.38742">
        <ele>447.78384029807</ele>
        <time>2017-06-12T10:39:17Z</time>
      </trkpt>
      <trkpt lat="43.78388" lon="3.38803">
        <ele>453.33882589456</ele>
        <time>2017-06-12T10:40:00Z</time>
      </trkpt>
      <trkpt lat="43.78455" lon="3.38846">
        <ele>459.31513735785</ele>
        <time>2017-06-12T10:41:02Z</time>
      </trkpt>
      <trkpt lat="43.78461" lon="3.38849">
        <ele>459.31513735785</ele>
        <time>2017-06-12T10:41:06Z</time>
      </trkpt>
      <trkpt lat="43.7847" lon="3.38855">
        <ele>464.95963896782</ele>
        <time>2017-06-12T10:41:22Z</time>
      </trkpt>
      <trkpt lat="43.78473" lon="3.38864">
        <ele>464.95963896782</ele>
        <time>2017-06-12T10:41:48Z</time>
      </trkpt>
      <trkpt lat="43.78471" lon="3.38865">
        <ele>470.31095363053</ele>
        <time>2017-06-12T10:42:06Z</time>
      </trkpt>
      <trkpt lat="43.78467" lon="3.3886">
        <ele>470.31095363053</ele>
        <time>2017-06-12T10:42:06Z</time>
      </trkpt>
      <trkpt lat="43.78465" lon="3.38862">
        <ele>470.31095363053</ele>
        <time>2017-06-12T10:42:23Z</time>
      </trkpt>
      <trkpt lat="43.78467" lon="3.38864">
        <ele>474.70008090429</ele>
        <time>2017-06-12T10:42:23Z</time>
      </trkpt>
      <trkpt lat="43.78453" lon="3.38903">
        <ele>478.7929872806</ele>
        <time>2017-06-12T10:43:00Z</time>
      </trkpt>
      <trkpt lat="43.78451" lon="3.38924">
        <ele>482.35781724527</ele>
        <time>2017-06-12T10:43:22Z</time>
      </trkpt>
      <trkpt lat="43.78456" lon="3.38939">
        <ele>485.49878414619</ele>
        <time>2017-06-12T10:43:39Z</time>
      </trkpt>
      <trkpt lat="43.78461" lon="3.38948">
        <ele>485.49878414619</ele>
        <time>2017-06-12T10:43:39Z</time>
      </trkpt>
      <trkpt lat="43.7847" lon="3.38977">
        <ele>488.34294948181</ele>
        <time>2017-06-12T10:44:00Z</time>
      </trkpt>
      <trkpt lat="43.78469" lon="3.38997">
        <ele>490.96611075572</ele>
        <time>2017-06-12T10:44:27Z</time>
      </trkpt>
      <trkpt lat="43.78466" lon="3.39002">
        <ele>490.96611075572</ele>
        <time>2017-06-12T10:44:27Z</time>
      </trkpt>
      <trkpt lat="43.78447" lon="3.39023">
        <ele>492.86311796008</ele>
        <time>2017-06-12T10:44:56Z</time>
      </trkpt>
      <trkpt lat="43.78445" lon="3.3903">
        <ele>492.86311796008</ele>
        <time>2017-06-12T10:45:04Z</time>
      </trkpt>
      <trkpt lat="43.78434" lon="3.39075">
        <ele>494.08718353755</ele>
        <time>2017-06-12T10:45:30Z</time>
      </trkpt>
      <trkpt lat="43.78437" lon="3.39123">
        <ele>494.41607215578</ele>
        <time>2017-06-12T10:46:11Z</time>
      </trkpt>
      <trkpt lat="43.78427" lon="3.39141">
        <ele>494.07906690743</ele>
        <time>2017-06-12T10:46:36Z</time>
      </trkpt>
      <trkpt lat="43.78423" lon="3.39148">
        <ele>494.07906690743</ele>
        <time>2017-06-12T10:46:36Z</time>
      </trkpt>
      <trkpt lat="43.78413" lon="3.39156">
        <ele>493.37725046101</ele>
        <time>2017-06-12T10:46:45Z</time>
      </trkpt>
      <trkpt lat="43.78429" lon="3.39189">
        <ele>492.36029792422</ele>
        <time>2017-06-12T10:47:05Z</time>
      </trkpt>
      <trkpt lat="43.78431" lon="3.39195">
        <ele>492.36029792422</ele>
        <time>2017-06-12T10:47:10Z</time>
      </trkpt>
      <trkpt lat="43.78433" lon="3.39205">
        <ele>491.17621667731</ele>
        <time>2017-06-12T10:47:25Z</time>
      </trkpt>
      <trkpt lat="43.78428" lon="3.39236">
        <ele>489.60250638306</ele>
        <time>2017-06-12T10:48:00Z</time>
      </trkpt>
      <trkpt lat="43.78427" lon="3.39247">
        <ele>489.60250638306</ele>
        <time>2017-06-12T10:48:00Z</time>
      </trkpt>
      <trkpt lat="43.7842" lon="3.3927">
        <ele>487.78010077617</ele>
        <time>2017-06-12T10:48:27Z</time>
      </trkpt>
      <trkpt lat="43.78415" lon="3.39284">
        <ele>485.86918603658</ele>
        <time>2017-06-12T10:48:27Z</time>
      </trkpt>
      <trkpt lat="43.78419" lon="3.39304">
        <ele>483.88877222834</ele>
        <time>2017-06-12T10:48:53Z</time>
      </trkpt>
      <trkpt lat="43.78372" lon="3.39387">
        <ele>481.3234574229</ele>
        <time>2017-06-12T10:50:14Z</time>
      </trkpt>
      <trkpt lat="43.78372" lon="3.39385">
        <ele>481.3234574229</ele>
        <time>2017-06-12T10:50:49Z</time>
      </trkpt>
      <trkpt lat="43.78368" lon="3.39382">
        <ele>481.3234574229</ele>
        <time>2017-06-12T10:50:56Z</time>
      </trkpt>
      <trkpt lat="43.78361" lon="3.39376">
        <ele>479.51310609584</ele>
        <time>2017-06-12T10:51:00Z</time>
      </trkpt>
      <trkpt lat="43.78341" lon="3.39364">
        <ele>478.34232076619</ele>
        <time>2017-06-12T10:51:19Z</time>
      </trkpt>
      <trkpt lat="43.7834" lon="3.39364">
        <ele>478.34232076619</ele>
        <time>2017-06-12T10:51:20Z</time>
      </trkpt>
      <trkpt lat="43.78332" lon="3.39362">
        <ele>478.34232076619</ele>
        <time>2017-06-12T10:51:25Z</time>
      </trkpt>
      <trkpt lat="43.78333" lon="3.39359">
        <ele>477.45729481649</ele>
        <time>2017-06-12T10:51:35Z</time>
      </trkpt>
      <trkpt lat="43.78319" lon="3.39358">
        <ele>476.64457135223</ele>
        <time>2017-06-12T10:51:43Z</time>
      </trkpt>
      <trkpt lat="43.78306" lon="3.39361">
        <ele>476.18159077549</ele>
        <time>2017-06-12T10:52:17Z</time>
      </trkpt>
      <trkpt lat="43.78298" lon="3.39364">
        <ele>476.18159077549</ele>
        <time>2017-06-12T10:52:17Z</time>
      </trkpt>
      <trkpt lat="43.7829" lon="3.39364">
        <ele>475.96399121205</ele>
        <time>2017-06-12T10:52:27Z</time>
      </trkpt>
      <trkpt lat="43.78301" lon="3.39331">
        <ele>476.08155988573</ele>
        <time>2017-06-12T10:53:07Z</time>
      </trkpt>
      <trkpt lat="43.7831" lon="3.39317">
        <ele>476.24167736372</ele>
        <time>2017-06-12T10:53:07Z</time>
      </trkpt>
      <trkpt lat="43.78315" lon="3.3931">
        <ele>476.24167736372</ele>
        <time>2017-06-12T10:53:24Z</time>
      </trkpt>
      <trkpt lat="43.78316" lon="3.3931">
        <ele>476.24167736372</ele>
        <time>2017-06-12T10:53:32Z</time>
      </trkpt>
      <trkpt lat="43.78329" lon="3.39302">
        <ele>476.66289263677</ele>
        <time>2017-06-12T10:53:32Z</time>
      </trkpt>
      <trkpt lat="43.78314" lon="3.39265">
        <ele>476.55241099141</ele>
        <time>2017-06-12T10:54:35Z</time>
      </trkpt>
      <trkpt lat="43.78305" lon="3.39253">
        <ele>475.98399836597</ele>
        <time>2017-06-12T10:54:40Z</time>
      </trkpt>
      <trkpt lat="43.78305" lon="3.39248">
        <ele>475.98399836597</ele>
        <time>2017-06-12T10:54:45Z</time>
      </trkpt>
      <trkpt lat="43.78304" lon="3.39242">
        <ele>475.98399836597</ele>
        <time>2017-06-12T10:54:50Z</time>
      </trkpt>
      <trkpt lat="43.78301" lon="3.39236">
        <ele>475.32972466987</ele>
        <time>2017-06-12T10:54:55Z</time>
      </trkpt>
      <trkpt lat="43.78299" lon="3.39229">
        <ele>475.32972466987</ele>
        <time>2017-06-12T10:55:00Z</time>
      </trkpt>
      <trkpt lat="43.78298" lon="3.39225">
        <ele>474.55967963491</ele>
        <time>2017-06-12T10:55:05Z</time>
      </trkpt>
      <trkpt lat="43.78297" lon="3.3922">
        <ele>474.55967963491</ele>
        <time>2017-06-12T10:55:10Z</time>
      </trkpt>
      <trkpt lat="43.78296" lon="3.39216">
        <ele>474.55967963491</ele>
        <time>2017-06-12T10:55:15Z</time>
      </trkpt>
      <trkpt lat="43.78295" lon="3.39209">
        <ele>473.70391404192</ele>
        <time>2017-06-12T10:55:20Z</time>
      </trkpt>
      <trkpt lat="43.78294" lon="3.39201">
        <ele>473.70391404192</ele>
        <time>2017-06-12T10:55:25Z</time>
      </trkpt>
      <trkpt lat="43.78292" lon="3.39196">
        <ele>472.76147814708</ele>
        <time>2017-06-12T10:55:30Z</time>
      </trkpt>
      <trkpt lat="43.78289" lon="3.39189">
        <ele>472.76147814708</ele>
        <time>2017-06-12T10:55:35Z</time>
      </trkpt>
      <trkpt lat="43.78284" lon="3.39166">
        <ele>471.67387374509</ele>
        <time>2017-06-12T10:55:55Z</time>
      </trkpt>
      <trkpt lat="43.78282" lon="3.39123">
        <ele>470.31502890533</ele>
        <time>2017-06-12T10:56:28Z</time>
      </trkpt>
      <trkpt lat="43.78282" lon="3.39123">
        <ele>470.31502890533</ele>
        <time>2017-06-12T10:56:43Z</time>
      </trkpt>
      <trkpt lat="43.78283" lon="3.39098">
        <ele>469.11628838087</ele>
        <time>2017-06-12T10:56:51Z</time>
      </trkpt>
      <trkpt lat="43.78267" lon="3.39087">
        <ele>467.43902719114</ele>
        <time>2017-06-12T10:57:08Z</time>
      </trkpt>
      <trkpt lat="43.7822" lon="3.39072">
        <ele>465.12496886095</ele>
        <time>2017-06-12T10:57:53Z</time>
      </trkpt>
      <trkpt lat="43.7821" lon="3.39075">
        <ele>462.85043607324</ele>
        <time>2017-06-12T10:57:53Z</time>
      </trkpt>
      <trkpt lat="43.78205" lon="3.3908">
        <ele>462.85043607324</ele>
        <time>2017-06-12T10:58:04Z</time>
      </trkpt>
      <trkpt lat="43.78202" lon="3.3908">
        <ele>462.85043607324</ele>
        <time>2017-06-12T10:58:05Z</time>
      </trkpt>
      <trkpt lat="43.78183" lon="3.39081">
        <ele>460.42026843387</ele>
        <time>2017-06-12T10:58:20Z</time>
      </trkpt>
      <trkpt lat="43.78163" lon="3.39061">
        <ele>458.30231421466</ele>
        <time>2017-06-12T10:59:00Z</time>
      </trkpt>
      <trkpt lat="43.78162" lon="3.39061">
        <ele>458.30231421466</ele>
        <time>2017-06-12T10:59:00Z</time>
      </trkpt>
      <trkpt lat="43.78211" lon="3.39044">
        <ele>455.27162563371</ele>
        <time>2017-06-12T11:00:01Z</time>
      </trkpt>
      <trkpt lat="43.78204" lon="3.39039">
        <ele>455.27162563371</ele>
        <time>2017-06-12T11:00:38Z</time>
      </trkpt>
      <trkpt lat="43.78205" lon="3.3904">
        <ele>452.2130733374</ele>
        <time>2017-06-12T11:00:39Z</time>
      </trkpt>
      <trkpt lat="43.782" lon="3.39041">
        <ele>452.2130733374</ele>
        <time>2017-06-12T11:01:00Z</time>
      </trkpt>
      <trkpt lat="43.78186" lon="3.39039">
        <ele>449.24016841</ele>
        <time>2017-06-12T11:01:00Z</time>
      </trkpt>
      <trkpt lat="43.78182" lon="3.3903">
        <ele>449.24016841</ele>
        <time>2017-06-12T11:01:11Z</time>
      </trkpt>
      <trkpt lat="43.78184" lon="3.39043">
        <ele>446.39989982768</ele>
        <time>2017-06-12T11:01:34Z</time>
      </trkpt>
      <trkpt lat="43.78174" lon="3.39046">
        <ele>443.82159348984</ele>
        <time>2017-06-12T11:01:34Z</time>
      </trkpt>
      <trkpt lat="43.78143" lon="3.39047">
        <ele>441.04758450551</ele>
        <time>2017-06-12T11:01:51Z</time>
      </trkpt>
      <trkpt lat="43.78123" lon="3.39042">
        <ele>438.57637462238</ele>
        <time>2017-06-12T11:02:08Z</time>
      </trkpt>
      <trkpt lat="43.78105" lon="3.39034">
        <ele>436.82545001252</ele>
        <time>2017-06-12T11:02:33Z</time>
      </trkpt>
      <trkpt lat="43.78102" lon="3.39026">
        <ele>436.82545001252</ele>
        <time>2017-06-12T11:02:33Z</time>
      </trkpt>
      <trkpt lat="43.78028" lon="3.38987">
        <ele>434.32026240345</ele>
        <time>2017-06-12T11:03:55Z</time>
      </trkpt>
      <trkpt lat="43.77962" lon="3.39003">
        <ele>431.10867891313</ele>
        <time>2017-06-12T11:05:07Z</time>
      </trkpt>
      <trkpt lat="43.77949" lon="3.39">
        <ele>428.4328483845</ele>
        <time>2017-06-12T11:05:34Z</time>
      </trkpt>
      <trkpt lat="43.77903" lon="3.38954">
        <ele>427.29775692103</ele>
        <time>2017-06-12T11:06:00Z</time>
      </trkpt>
      <trkpt lat="43.77889" lon="3.38935">
        <ele>426.65562593342</ele>
        <time>2017-06-12T11:06:15Z</time>
      </trkpt>
      <trkpt lat="43.77878" lon="3.38928">
        <ele>426.36982633892</ele>
        <time>2017-06-12T11:06:23Z</time>
      </trkpt>
      <trkpt lat="43.77868" lon="3.38914">
        <ele>426.39896924176</ele>
        <time>2017-06-12T11:06:56Z</time>
      </trkpt>
      <trkpt lat="43.77861" lon="3.38896">
        <ele>426.53064746099</ele>
        <time>2017-06-12T11:06:56Z</time>
      </trkpt>
      <trkpt lat="43.77833" lon="3.38865">
        <ele>425.31378123267</ele>
        <time>2017-06-12T11:08:00Z</time>
      </trkpt>
      <trkpt lat="43.77827" lon="3.38857">
        <ele>425.31378123267</ele>
        <time>2017-06-12T11:08:08Z</time>
      </trkpt>
      <trkpt lat="43.77806" lon="3.38835">
        <ele>423.67001215282</ele>
        <time>2017-06-12T11:08:34Z</time>
      </trkpt>
      <trkpt lat="43.77795" lon="3.38827">
        <ele>421.57520977082</ele>
        <time>2017-06-12T11:08:34Z</time>
      </trkpt>
      <trkpt lat="43.77774" lon="3.38792">
        <ele>419.16662471977</ele>
        <time>2017-06-12T11:09:17Z</time>
      </trkpt>
      <trkpt lat="43.77759" lon="3.38756">
        <ele>417.00446535455</ele>
        <time>2017-06-12T11:10:25Z</time>
      </trkpt>
      <trkpt lat="43.777" lon="3.38729">
        <ele>414.78549243048</ele>
        <time>2017-06-12T11:11:17Z</time>
      </trkpt>
      <trkpt lat="43.77694" lon="3.38724">
        <ele>414.78549243048</ele>
        <time>2017-06-12T11:11:21Z</time>
      </trkpt>
      <trkpt lat="43.77693" lon="3.38724">
        <ele>414.78549243048</ele>
        <time>2017-06-12T11:11:22Z</time>
      </trkpt>
      <trkpt lat="43.77684" lon="3.38715">
        <ele>412.89164679534</ele>
        <time>2017-06-12T11:11:39Z</time>
      </trkpt>
      <trkpt lat="43.77675" lon="3.38708">
        <ele>411.37310505798</ele>
        <time>2017-06-12T11:11:39Z</time>
      </trkpt>
      <trkpt lat="43.77653" lon="3.38693">
        <ele>410.18868376505</ele>
        <time>2017-06-12T11:11:59Z</time>
      </trkpt>
      <trkpt lat="43.77651" lon="3.38693">
        <ele>410.18868376505</ele>
        <time>2017-06-12T11:12:00Z</time>
      </trkpt>
      <trkpt lat="43.77597" lon="3.38715">
        <ele>409.83235436</ele>
        <time>2017-06-12T11:12:55Z</time>
      </trkpt>
      <trkpt lat="43.77597" lon="3.38726">
        <ele>409.83235436</ele>
        <time>2017-06-12T11:13:00Z</time>
      </trkpt>
      <trkpt lat="43.77583" lon="3.38784">
        <ele>409.51999077584</ele>
        <time>2017-06-12T11:13:32Z</time>
      </trkpt>
      <trkpt lat="43.77589" lon="3.38833">
        <ele>409.43272947066</ele>
        <time>2017-06-12T11:14:02Z</time>
      </trkpt>
      <trkpt lat="43.77589" lon="3.38834">
        <ele>409.43272947066</ele>
        <time>2017-06-12T11:14:03Z</time>
      </trkpt>
      <trkpt lat="43.77603" lon="3.38857">
        <ele>409.53591527244</ele>
        <time>2017-06-12T11:14:27Z</time>
      </trkpt>
      <trkpt lat="43.77605" lon="3.38867">
        <ele>409.53591527244</ele>
        <time>2017-06-12T11:14:27Z</time>
      </trkpt>
      <trkpt lat="43.77611" lon="3.38877">
        <ele>409.85446949483</ele>
        <time>2017-06-12T11:14:44Z</time>
      </trkpt>
      <trkpt lat="43.77618" lon="3.38891">
        <ele>410.18024010537</ele>
        <time>2017-06-12T11:14:44Z</time>
      </trkpt>
      <trkpt lat="43.7764" lon="3.38908">
        <ele>410.56529279715</ele>
        <time>2017-06-12T11:15:01Z</time>
      </trkpt>
      <trkpt lat="43.77655" lon="3.38917">
        <ele>411.27384614271</ele>
        <time>2017-06-12T11:15:17Z</time>
      </trkpt>
      <trkpt lat="43.77686" lon="3.38938">
        <ele>412.86684349262</ele>
        <time>2017-06-12T11:15:58Z</time>
      </trkpt>
      <trkpt lat="43.77694" lon="3.38947">
        <ele>414.50691305862</ele>
        <time>2017-06-12T11:15:58Z</time>
      </trkpt>
      <trkpt lat="43.77696" lon="3.38949">
        <ele>414.50691305862</ele>
        <time>2017-06-12T11:16:00Z</time>
      </trkpt>
      <trkpt lat="43.7771" lon="3.3896">
        <ele>416.51334835664</ele>
        <time>2017-06-12T11:16:11Z</time>
      </trkpt>
      <trkpt lat="43.77717" lon="3.38965">
        <ele>416.51334835664</ele>
        <time>2017-06-12T11:16:19Z</time>
      </trkpt>
      <trkpt lat="43.77719" lon="3.38967">
        <ele>418.80633421174</ele>
        <time>2017-06-12T11:16:20Z</time>
      </trkpt>
      <trkpt lat="43.77743" lon="3.38993">
        <ele>421.22473553722</ele>
        <time>2017-06-12T11:16:52Z</time>
      </trkpt>
      <trkpt lat="43.77758" lon="3.39006">
        <ele>423.59019113986</ele>
        <time>2017-06-12T11:17:03Z</time>
      </trkpt>
      <trkpt lat="43.77785" lon="3.39029">
        <ele>426.02594689971</ele>
        <time>2017-06-12T11:17:38Z</time>
      </trkpt>
      <trkpt lat="43.77802" lon="3.39041">
        <ele>428.6317423089</ele>
        <time>2017-06-12T11:17:46Z</time>
      </trkpt>
      <trkpt lat="43.77821" lon="3.39056">
        <ele>431.08176582939</ele>
        <time>2017-06-12T11:18:03Z</time>
      </trkpt>
      <trkpt lat="43.77857" lon="3.39079">
        <ele>434.77528377461</ele>
        <time>2017-06-12T11:18:59Z</time>
      </trkpt>
      <trkpt lat="43.77865" lon="3.39081">
        <ele>434.77528377461</ele>
        <time>2017-06-12T11:18:59Z</time>
      </trkpt>
      <trkpt lat="43.77898" lon="3.39107">
        <ele>438.77177708389</ele>
        <time>2017-06-12T11:19:36Z</time>
      </trkpt>
      <trkpt lat="43.7791" lon="3.39113">
        <ele>442.67476968025</ele>
        <time>2017-06-12T11:19:56Z</time>
      </trkpt>
      <trkpt lat="43.77915" lon="3.39113">
        <ele>442.67476968025</ele>
        <time>2017-06-12T11:19:56Z</time>
      </trkpt>
      <trkpt lat="43.77917" lon="3.39112">
        <ele>442.67476968025</ele>
        <time>2017-06-12T11:20:00Z</time>
      </trkpt>
      <trkpt lat="43.77924" lon="3.39119">
        <ele>446.42006314425</ele>
        <time>2017-06-12T11:20:17Z</time>
      </trkpt>
      <trkpt lat="43.77941" lon="3.39131">
        <ele>450.03536134827</ele>
        <time>2017-06-12T11:20:39Z</time>
      </trkpt>
      <trkpt lat="43.77942" lon="3.39139">
        <ele>450.03536134827</ele>
        <time>2017-06-12T11:20:45Z</time>
      </trkpt>
      <trkpt lat="43.77943" lon="3.39147">
        <ele>453.44611433539</ele>
        <time>2017-06-12T11:21:02Z</time>
      </trkpt>
      <trkpt lat="43.77951" lon="3.39228">
        <ele>457.43438767988</ele>
        <time>2017-06-12T11:23:00Z</time>
      </trkpt>
      <trkpt lat="43.77952" lon="3.39233">
        <ele>457.43438767988</ele>
        <time>2017-06-12T11:23:02Z</time>
      </trkpt>
      <trkpt lat="43.77945" lon="3.39248">
        <ele>461.44090967326</ele>
        <time>2017-06-12T11:23:28Z</time>
      </trkpt>
      <trkpt lat="43.77927" lon="3.39252">
        <ele>465.5530420851</ele>
        <time>2017-06-12T11:23:50Z</time>
      </trkpt>
      <trkpt lat="43.77918" lon="3.39258">
        <ele>469.49149951019</ele>
        <time>2017-06-12T11:23:53Z</time>
      </trkpt>
      <trkpt lat="43.77913" lon="3.39262">
        <ele>469.49149951019</ele>
        <time>2017-06-12T11:24:00Z</time>
      </trkpt>
      <trkpt lat="43.77933" lon="3.39347">
        <ele>474.98709076662</ele>
        <time>2017-06-12T11:26:30Z</time>
      </trkpt>
      <trkpt lat="43.77938" lon="3.39346">
        <ele>474.98709076662</ele>
        <time>2017-06-12T11:26:34Z</time>
      </trkpt>
      <trkpt lat="43.77945" lon="3.39348">
        <ele>480.44021323161</ele>
        <time>2017-06-12T11:26:52Z</time>
      </trkpt>
      <trkpt lat="43.77952" lon="3.39346">
        <ele>480.44021323161</ele>
        <time>2017-06-12T11:26:52Z</time>
      </trkpt>
      <trkpt lat="43.77958" lon="3.39349">
        <ele>486.02654981584</ele>
        <time>2017-06-12T11:27:09Z</time>
      </trkpt>
      <trkpt lat="43.77982" lon="3.39381">
        <ele>492.51416877149</ele>
        <time>2017-06-12T11:27:57Z</time>
      </trkpt>
      <trkpt lat="43.77973" lon="3.39377">
        <ele>499.05620207077</ele>
        <time>2017-06-12T11:28:13Z</time>
      </trkpt>
      <trkpt lat="43.77971" lon="3.39376">
        <ele>499.05620207077</ele>
        <time>2017-06-12T11:28:15Z</time>
      </trkpt>
      <trkpt lat="43.77966" lon="3.39376">
        <ele>499.05620207077</ele>
        <time>2017-06-12T11:28:20Z</time>
      </trkpt>
      <trkpt lat="43.7795" lon="3.39399">
        <ele>505.77617105958</ele>
        <time>2017-06-12T11:29:00Z</time>
      </trkpt>
      <trkpt lat="43.77971" lon="3.39416">
        <ele>512.41378265492</ele>
        <time>2017-06-12T11:29:42Z</time>
      </trkpt>
      <trkpt lat="43.77975" lon="3.39421">
        <ele>512.41378265492</ele>
        <time>2017-06-12T11:29:42Z</time>
      </trkpt>
      <trkpt lat="43.77988" lon="3.39435">
        <ele>518.91590295538</ele>
        <time>2017-06-12T11:30:00Z</time>
      </trkpt>
      <trkpt lat="43.77984" lon="3.39444">
        <ele>518.91590295538</ele>
        <time>2017-06-12T11:30:41Z</time>
      </trkpt>
      <trkpt lat="43.77974" lon="3.39447">
        <ele>525.24856741837</ele>
        <time>2017-06-12T11:30:43Z</time>
      </trkpt>
      <trkpt lat="43.77982" lon="3.39454">
        <ele>531.0353986133</ele>
        <time>2017-06-12T11:31:11Z</time>
      </trkpt>
      <trkpt lat="43.78003" lon="3.39468">
        <ele>536.31878657487</ele>
        <time>2017-06-12T11:31:51Z</time>
      </trkpt>
      <trkpt lat="43.78007" lon="3.39473">
        <ele>536.31878657487</ele>
        <time>2017-06-12T11:31:52Z</time>
      </trkpt>
      <trkpt lat="43.78012" lon="3.39483">
        <ele>541.2840179343</ele>
        <time>2017-06-12T11:32:06Z</time>
      </trkpt>
      <trkpt lat="43.78012" lon="3.39489">
        <ele>541.2840179343</ele>
        <time>2017-06-12T11:32:15Z</time>
      </trkpt>
      <trkpt lat="43.77994" lon="3.39505">
        <ele>546.20502083925</ele>
        <time>2017-06-12T11:33:00Z</time>
      </trkpt>
      <trkpt lat="43.77993" lon="3.39538">
        <ele>551.12003197888</ele>
        <time>2017-06-12T11:33:42Z</time>
      </trkpt>
      <trkpt lat="43.77992" lon="3.39547">
        <ele>551.12003197888</ele>
        <time>2017-06-12T11:34:00Z</time>
      </trkpt>
      <trkpt lat="43.78012" lon="3.39571">
        <ele>556.22348181985</ele>
        <time>2017-06-12T11:35:07Z</time>
      </trkpt>
      <trkpt lat="43.78012" lon="3.39565">
        <ele>556.22348181985</ele>
        <time>2017-06-12T11:35:07Z</time>
      </trkpt>
      <trkpt lat="43.78012" lon="3.39573">
        <ele>561.07576334621</ele>
        <time>2017-06-12T11:35:28Z</time>
      </trkpt>
      <trkpt lat="43.78029" lon="3.39604">
        <ele>565.73186259043</ele>
        <time>2017-06-12T11:36:06Z</time>
      </trkpt>
      <trkpt lat="43.78053" lon="3.39642">
        <ele>570.60398116769</ele>
        <time>2017-06-12T11:37:10Z</time>
      </trkpt>
      <trkpt lat="43.7806" lon="3.39645">
        <ele>570.60398116769</ele>
        <time>2017-06-12T11:37:28Z</time>
      </trkpt>
      <trkpt lat="43.78061" lon="3.39645">
        <ele>570.60398116769</ele>
        <time>2017-06-12T11:37:32Z</time>
      </trkpt>
      <trkpt lat="43.78088" lon="3.39675">
        <ele>575.41093613658</ele>
        <time>2017-06-12T11:38:17Z</time>
      </trkpt>
      <trkpt lat="43.78111" lon="3.397">
        <ele>579.87836983572</ele>
        <time>2017-06-12T11:39:03Z</time>
      </trkpt>
      <trkpt lat="43.78114" lon="3.3971">
        <ele>579.87836983572</ele>
        <time>2017-06-12T11:39:07Z</time>
      </trkpt>
      <trkpt lat="43.78117" lon="3.39725">
        <ele>583.81105747564</ele>
        <time>2017-06-12T11:39:24Z</time>
      </trkpt>
      <trkpt lat="43.78142" lon="3.39742">
        <ele>587.57760199309</ele>
        <time>2017-06-12T11:40:08Z</time>
      </trkpt>
      <trkpt lat="43.78152" lon="3.3973">
        <ele>591.37622845425</ele>
        <time>2017-06-12T11:40:23Z</time>
      </trkpt>
      <trkpt lat="43.78152" lon="3.39731">
        <ele>591.37622845425</ele>
        <time>2017-06-12T11:40:25Z</time>
      </trkpt>
      <trkpt lat="43.7816" lon="3.39735">
        <ele>595.03055594706</ele>
        <time>2017-06-12T11:40:37Z</time>
      </trkpt>
      <trkpt lat="43.78162" lon="3.39738">
        <ele>595.03055594706</ele>
        <time>2017-06-12T11:40:40Z</time>
      </trkpt>
      <trkpt lat="43.78167" lon="3.39744">
        <ele>598.88225637085</ele>
        <time>2017-06-12T11:40:45Z</time>
      </trkpt>
      <trkpt lat="43.78171" lon="3.39746">
        <ele>598.88225637085</ele>
        <time>2017-06-12T11:40:50Z</time>
      </trkpt>
      <trkpt lat="43.78174" lon="3.39748">
        <ele>598.88225637085</ele>
        <time>2017-06-12T11:40:55Z</time>
      </trkpt>
      <trkpt lat="43.78178" lon="3.39752">
        <ele>603.03146394964</ele>
        <time>2017-06-12T11:41:00Z</time>
      </trkpt>
      <trkpt lat="43.78179" lon="3.39755">
        <ele>603.03146394964</ele>
        <time>2017-06-12T11:41:05Z</time>
      </trkpt>
      <trkpt lat="43.78184" lon="3.39759">
        <ele>603.03146394964</ele>
        <time>2017-06-12T11:41:10Z</time>
      </trkpt>
      <trkpt lat="43.78187" lon="3.39761">
        <ele>607.12364052479</ele>
        <time>2017-06-12T11:41:15Z</time>
      </trkpt>
      <trkpt lat="43.78187" lon="3.39762">
        <ele>607.12364052479</ele>
        <time>2017-06-12T11:41:20Z</time>
      </trkpt>
      <trkpt lat="43.78192" lon="3.39766">
        <ele>607.12364052479</ele>
        <time>2017-06-12T11:41:30Z</time>
      </trkpt>
      <trkpt lat="43.78195" lon="3.39767">
        <ele>611.33508625975</ele>
        <time>2017-06-12T11:41:35Z</time>
      </trkpt>
      <trkpt lat="43.78198" lon="3.39768">
        <ele>611.33508625975</ele>
        <time>2017-06-12T11:41:43Z</time>
      </trkpt>
      <trkpt lat="43.78227" lon="3.39762">
        <ele>615.10848827303</ele>
        <time>2017-06-12T11:42:04Z</time>
      </trkpt>
      <trkpt lat="43.78235" lon="3.3976">
        <ele>615.10848827303</ele>
        <time>2017-06-12T11:42:08Z</time>
      </trkpt>
      <trkpt lat="43.78271" lon="3.39755">
        <ele>621.01289708292</ele>
        <time>2017-06-12T11:42:51Z</time>
      </trkpt>
      <trkpt lat="43.78298" lon="3.39737">
        <ele>627.45981360532</ele>
        <time>2017-06-12T11:43:18Z</time>
      </trkpt>
      <trkpt lat="43.78338" lon="3.39724">
        <ele>634.71985540247</ele>
        <time>2017-06-12T11:43:59Z</time>
      </trkpt>
      <trkpt lat="43.78338" lon="3.39724">
        <ele>634.71985540247</ele>
        <time>2017-06-12T11:44:06Z</time>
      </trkpt>
      <trkpt lat="43.78345" lon="3.39722">
        <ele>634.71985540247</ele>
        <time>2017-06-12T11:44:06Z</time>
      </trkpt>
      <trkpt lat="43.78352" lon="3.3972">
        <ele>641.65821722334</ele>
        <time>2017-06-12T11:44:14Z</time>
      </trkpt>
      <trkpt lat="43.78373" lon="3.3972">
        <ele>647.87306829668</ele>
        <time>2017-06-12T11:44:30Z</time>
      </trkpt>
      <trkpt lat="43.78406" lon="3.39721">
        <ele>651.99996935038</ele>
        <time>2017-06-12T11:44:55Z</time>
      </trkpt>
      <trkpt lat="43.78416" lon="3.39721">
        <ele>655.64858775524</ele>
        <time>2017-06-12T11:44:56Z</time>
      </trkpt>
      <trkpt lat="43.78438" lon="3.3971">
        <ele>658.53931339629</ele>
        <time>2017-06-12T11:45:21Z</time>
      </trkpt>
      <trkpt lat="43.78447" lon="3.39697">
        <ele>660.91976421923</ele>
        <time>2017-06-12T11:45:21Z</time>
      </trkpt>
      <trkpt lat="43.785" lon="3.39603">
        <ele>659.76402864961</ele>
        <time>2017-06-12T11:46:43Z</time>
      </trkpt>
      <trkpt lat="43.78518" lon="3.39591">
        <ele>658.07176844657</ele>
        <time>2017-06-12T11:46:45Z</time>
      </trkpt>
      <trkpt lat="43.7854" lon="3.39568">
        <ele>656.14514137944</ele>
        <time>2017-06-12T11:47:31Z</time>
      </trkpt>
      <trkpt lat="43.78547" lon="3.39563">
        <ele>656.14514137944</ele>
        <time>2017-06-12T11:47:36Z</time>
      </trkpt>
      <trkpt lat="43.78573" lon="3.39542">
        <ele>654.74033831415</ele>
        <time>2017-06-12T11:47:58Z</time>
      </trkpt>
      <trkpt lat="43.78592" lon="3.39524">
        <ele>653.17302153379</ele>
        <time>2017-06-12T11:48:23Z</time>
      </trkpt>
      <trkpt lat="43.78597" lon="3.39515">
        <ele>653.17302153379</ele>
        <time>2017-06-12T11:48:23Z</time>
      </trkpt>
      <trkpt lat="43.78766" lon="3.39419">
        <ele>653.97993246075</ele>
        <time>2017-06-12T11:51:06Z</time>
      </trkpt>
      <trkpt lat="43.78772" lon="3.39419">
        <ele>653.97993246075</ele>
        <time>2017-06-12T11:51:07Z</time>
      </trkpt>
      <trkpt lat="43.78782" lon="3.39413">
        <ele>655.03722739623</ele>
        <time>2017-06-12T11:51:34Z</time>
      </trkpt>
      <trkpt lat="43.78795" lon="3.39314">
        <ele>656.99904165443</ele>
        <time>2017-06-12T11:52:24Z</time>
      </trkpt>
      <trkpt lat="43.78795" lon="3.39314">
        <ele>656.99904165443</ele>
        <time>2017-06-12T11:52:25Z</time>
      </trkpt>
      <trkpt lat="43.78798" lon="3.39313">
        <ele>656.99904165443</ele>
        <time>2017-06-12T11:52:34Z</time>
      </trkpt>
      <trkpt lat="43.78838" lon="3.3924">
        <ele>658.7394098777</ele>
        <time>2017-06-12T11:53:39Z</time>
      </trkpt>
      <trkpt lat="43.78838" lon="3.39224">
        <ele>660.20987896964</ele>
        <time>2017-06-12T11:53:39Z</time>
      </trkpt>
      <trkpt lat="43.78837" lon="3.39202">
        <ele>661.48140301974</ele>
        <time>2017-06-12T11:54:00Z</time>
      </trkpt>
      <trkpt lat="43.7885" lon="3.39159">
        <ele>662.82183131366</ele>
        <time>2017-06-12T11:54:37Z</time>
      </trkpt>
      <trkpt lat="43.78854" lon="3.39071">
        <ele>664.39246322126</ele>
        <time>2017-06-12T11:55:37Z</time>
      </trkpt>
      <trkpt lat="43.78853" lon="3.3906">
        <ele>664.39246322126</ele>
        <time>2017-06-12T11:55:38Z</time>
      </trkpt>
      <trkpt lat="43.78852" lon="3.39047">
        <ele>665.59250412331</ele>
        <time>2017-06-12T11:56:03Z</time>
      </trkpt>
      <trkpt lat="43.78849" lon="3.3902">
        <ele>666.48578310348</ele>
        <time>2017-06-12T11:56:03Z</time>
      </trkpt>
      <trkpt lat="43.78844" lon="3.38995">
        <ele>666.97354383056</ele>
        <time>2017-06-12T11:56:24Z</time>
      </trkpt>
      <trkpt lat="43.78843" lon="3.38995">
        <ele>666.97354383056</ele>
        <time>2017-06-12T11:56:25Z</time>
      </trkpt>
      <trkpt lat="43.78816" lon="3.38994">
        <ele>666.56166722321</ele>
        <time>2017-06-12T11:57:17Z</time>
      </trkpt>
      <trkpt lat="43.78837" lon="3.38979">
        <ele>665.08282189127</ele>
        <time>2017-06-12T11:58:07Z</time>
      </trkpt>
      <trkpt lat="43.7884" lon="3.38973">
        <ele>665.08282189127</ele>
        <time>2017-06-12T11:58:20Z</time>
      </trkpt>
      <trkpt lat="43.78854" lon="3.38939">
        <ele>663.13406762574</ele>
        <time>2017-06-12T11:59:08Z</time>
      </trkpt>
      <trkpt lat="43.78852" lon="3.38928">
        <ele>663.13406762574</ele>
        <time>2017-06-12T11:59:08Z</time>
      </trkpt>
      <trkpt lat="43.78846" lon="3.38907">
        <ele>661.31286509973</ele>
        <time>2017-06-12T11:59:29Z</time>
      </trkpt>
      <trkpt lat="43.78846" lon="3.389">
        <ele>661.31286509973</ele>
        <time>2017-06-12T11:59:29Z</time>
      </trkpt>
      <trkpt lat="43.78842" lon="3.38855">
        <ele>659.9127169009</ele>
        <time>2017-06-12T12:00:02Z</time>
      </trkpt>
      <trkpt lat="43.78849" lon="3.38824">
        <ele>658.68525384581</ele>
        <time>2017-06-12T12:00:20Z</time>
      </trkpt>
      <trkpt lat="43.78851" lon="3.38816">
        <ele>658.68525384581</ele>
        <time>2017-06-12T12:00:25Z</time>
      </trkpt>
      <trkpt lat="43.78853" lon="3.38802">
        <ele>657.57245544842</ele>
        <time>2017-06-12T12:00:42Z</time>
      </trkpt>
      <trkpt lat="43.78853" lon="3.38792">
        <ele>657.57245544842</ele>
        <time>2017-06-12T12:00:42Z</time>
      </trkpt>
      <trkpt lat="43.7885" lon="3.38752">
        <ele>656.6639961876</ele>
        <time>2017-06-12T12:01:07Z</time>
      </trkpt>
      <trkpt lat="43.78844" lon="3.38707">
        <ele>655.88350314281</ele>
        <time>2017-06-12T12:01:36Z</time>
      </trkpt>
      <trkpt lat="43.78842" lon="3.38691">
        <ele>655.11625192756</ele>
        <time>2017-06-12T12:01:38Z</time>
      </trkpt>
      <trkpt lat="43.78838" lon="3.38671">
        <ele>654.21230291372</ele>
        <time>2017-06-12T12:01:56Z</time>
      </trkpt>
      <trkpt lat="43.78835" lon="3.38659">
        <ele>653.24890757968</ele>
        <time>2017-06-12T12:01:56Z</time>
      </trkpt>
      <trkpt lat="43.78829" lon="3.38647">
        <ele>652.3118466837</ele>
        <time>2017-06-12T12:02:05Z</time>
      </trkpt>
      <trkpt lat="43.78817" lon="3.38626">
        <ele>651.52338620558</ele>
        <time>2017-06-12T12:02:20Z</time>
      </trkpt>
      <trkpt lat="43.78811" lon="3.38602">
        <ele>650.70780035469</ele>
        <time>2017-06-12T12:02:46Z</time>
      </trkpt>
      <trkpt lat="43.78781" lon="3.38602">
        <ele>649.0390674042</ele>
        <time>2017-06-12T12:04:25Z</time>
      </trkpt>
      <trkpt lat="43.78775" lon="3.38598">
        <ele>649.0390674042</ele>
        <time>2017-06-12T12:05:07Z</time>
      </trkpt>
      <trkpt lat="43.7879" lon="3.38601">
        <ele>647.12292603178</ele>
        <time>2017-06-12T12:16:41Z</time>
      </trkpt>
      <trkpt lat="43.78805" lon="3.38597">
        <ele>645.59300031562</ele>
        <time>2017-06-12T12:16:48Z</time>
      </trkpt>
      <trkpt lat="43.78812" lon="3.38594">
        <ele>645.59300031562</ele>
        <time>2017-06-12T12:16:55Z</time>
      </trkpt>
      <trkpt lat="43.78837" lon="3.38587">
        <ele>644.28554087498</ele>
        <time>2017-06-12T12:17:28Z</time>
      </trkpt>
      <trkpt lat="43.78853" lon="3.38561">
        <ele>643.03342709684</ele>
        <time>2017-06-12T12:17:52Z</time>
      </trkpt>
      <trkpt lat="43.78861" lon="3.38544">
        <ele>642.04157638835</ele>
        <time>2017-06-12T12:18:09Z</time>
      </trkpt>
      <trkpt lat="43.78869" lon="3.38527">
        <ele>641.19613450403</ele>
        <time>2017-06-12T12:18:09Z</time>
      </trkpt>
      <trkpt lat="43.78873" lon="3.38516">
        <ele>640.47732007222</ele>
        <time>2017-06-12T12:18:25Z</time>
      </trkpt>
      <trkpt lat="43.78877" lon="3.38505">
        <ele>640.47732007222</ele>
        <time>2017-06-12T12:18:25Z</time>
      </trkpt>
      <trkpt lat="43.78898" lon="3.38456">
        <ele>639.76523473783</ele>
        <time>2017-06-12T12:19:14Z</time>
      </trkpt>
      <trkpt lat="43.78928" lon="3.38352">
        <ele>638.58816403862</ele>
        <time>2017-06-12T12:20:25Z</time>
      </trkpt>
      <trkpt lat="43.78941" lon="3.38306">
        <ele>637.48998904597</ele>
        <time>2017-06-12T12:20:55Z</time>
      </trkpt>
      <trkpt lat="43.78943" lon="3.38298">
        <ele>637.48998904597</ele>
        <time>2017-06-12T12:21:00Z</time>
      </trkpt>
      <trkpt lat="43.78941" lon="3.3828">
        <ele>636.42648706036</ele>
        <time>2017-06-12T12:21:21Z</time>
      </trkpt>
      <trkpt lat="43.78942" lon="3.38259">
        <ele>635.47157830728</ele>
        <time>2017-06-12T12:21:38Z</time>
      </trkpt>
      <trkpt lat="43.78944" lon="3.38236">
        <ele>634.66433838134</ele>
        <time>2017-06-12T12:21:38Z</time>
      </trkpt>
      <trkpt lat="43.78943" lon="3.38201">
        <ele>634.27085953088</ele>
        <time>2017-06-12T12:22:01Z</time>
      </trkpt>
      <trkpt lat="43.78944" lon="3.38169">
        <ele>634.27686265645</ele>
        <time>2017-06-12T12:22:52Z</time>
      </trkpt>
      <trkpt lat="43.78948" lon="3.38053">
        <ele>635.08567174226</ele>
        <time>2017-06-12T12:24:02Z</time>
      </trkpt>
      <trkpt lat="43.78952" lon="3.37976">
        <ele>636.83792536</ele>
        <time>2017-06-12T12:24:58Z</time>
      </trkpt>
      <trkpt lat="43.78953" lon="3.37973">
        <ele>636.83792536</ele>
        <time>2017-06-12T12:25:00Z</time>
      </trkpt>
      <trkpt lat="43.78953" lon="3.37943">
        <ele>639.18551441041</ele>
        <time>2017-06-12T12:25:28Z</time>
      </trkpt>
      <trkpt lat="43.78954" lon="3.37942">
        <ele>639.18551441041</ele>
        <time>2017-06-12T12:25:34Z</time>
      </trkpt>
      <trkpt lat="43.78962" lon="3.37866">
        <ele>641.41495645003</ele>
        <time>2017-06-12T12:26:59Z</time>
      </trkpt>
      <trkpt lat="43.7896" lon="3.3786">
        <ele>641.41495645003</ele>
        <time>2017-06-12T12:27:25Z</time>
      </trkpt>
      <trkpt lat="43.78963" lon="3.37846">
        <ele>643.47063447397</ele>
        <time>2017-06-12T12:27:32Z</time>
      </trkpt>
      <trkpt lat="43.78964" lon="3.37818">
        <ele>645.40226746113</ele>
        <time>2017-06-12T12:28:00Z</time>
      </trkpt>
      <trkpt lat="43.78958" lon="3.37816">
        <ele>645.40226746113</ele>
        <time>2017-06-12T12:28:02Z</time>
      </trkpt>
      <trkpt lat="43.78951" lon="3.37798">
        <ele>647.19853858237</ele>
        <time>2017-06-12T12:28:29Z</time>
      </trkpt>
      <trkpt lat="43.7895" lon="3.37786">
        <ele>647.19853858237</ele>
        <time>2017-06-12T12:28:29Z</time>
      </trkpt>
      <trkpt lat="43.78944" lon="3.37746">
        <ele>648.84927989597</ele>
        <time>2017-06-12T12:29:00Z</time>
      </trkpt>
      <trkpt lat="43.78946" lon="3.37736">
        <ele>648.84927989597</ele>
        <time>2017-06-12T12:29:05Z</time>
      </trkpt>
      <trkpt lat="43.78926" lon="3.37655">
        <ele>650.27338266296</ele>
        <time>2017-06-12T12:30:29Z</time>
      </trkpt>
      <trkpt lat="43.78924" lon="3.37651">
        <ele>650.27338266296</ele>
        <time>2017-06-12T12:30:29Z</time>
      </trkpt>
      <trkpt lat="43.78921" lon="3.37644">
        <ele>651.58365524363</ele>
        <time>2017-06-12T12:30:47Z</time>
      </trkpt>
      <trkpt lat="43.78912" lon="3.37617">
        <ele>652.75523331027</ele>
        <time>2017-06-12T12:31:11Z</time>
      </trkpt>
      <trkpt lat="43.7891" lon="3.37601">
        <ele>653.85194355387</ele>
        <time>2017-06-12T12:31:33Z</time>
      </trkpt>
      <trkpt lat="43.7891" lon="3.37593">
        <ele>653.85194355387</ele>
        <time>2017-06-12T12:31:39Z</time>
      </trkpt>
      <trkpt lat="43.78898" lon="3.37587">
        <ele>654.8322765699</ele>
        <time>2017-06-12T12:31:59Z</time>
      </trkpt>
      <trkpt lat="43.78869" lon="3.37577">
        <ele>656.00399613521</ele>
        <time>2017-06-12T12:33:14Z</time>
      </trkpt>
      <trkpt lat="43.78865" lon="3.3757">
        <ele>656.00399613521</ele>
        <time>2017-06-12T12:33:15Z</time>
      </trkpt>
      <trkpt lat="43.78863" lon="3.37508">
        <ele>657.07531588643</ele>
        <time>2017-06-12T12:35:07Z</time>
      </trkpt>
      <trkpt lat="43.78865" lon="3.37504">
        <ele>657.07531588643</ele>
        <time>2017-06-12T12:35:07Z</time>
      </trkpt>
      <trkpt lat="43.78866" lon="3.37504">
        <ele>657.07531588643</ele>
        <time>2017-06-12T12:35:31Z</time>
      </trkpt>
      <trkpt lat="43.78849" lon="3.37493">
        <ele>657.99237965603</ele>
        <time>2017-06-12T12:36:00Z</time>
      </trkpt>
      <trkpt lat="43.78834" lon="3.37475">
        <ele>658.77782979351</ele>
        <time>2017-06-12T12:37:33Z</time>
      </trkpt>
      <trkpt lat="43.78832" lon="3.37473">
        <ele>658.77782979351</ele>
        <time>2017-06-12T12:37:35Z</time>
      </trkpt>
      <trkpt lat="43.78824" lon="3.37459">
        <ele>660.17363093707</ele>
        <time>2017-06-12T12:37:48Z</time>
      </trkpt>
      <trkpt lat="43.78809" lon="3.3745">
        <ele>662.1594540652</ele>
        <time>2017-06-12T12:38:41Z</time>
      </trkpt>
      <trkpt lat="43.78806" lon="3.37438">
        <ele>664.10961678197</ele>
        <time>2017-06-12T12:38:41Z</time>
      </trkpt>
      <trkpt lat="43.78806" lon="3.37427">
        <ele>664.10961678197</ele>
        <time>2017-06-12T12:38:49Z</time>
      </trkpt>
      <trkpt lat="43.78807" lon="3.37419">
        <ele>665.99220583539</ele>
        <time>2017-06-12T12:38:57Z</time>
      </trkpt>
      <trkpt lat="43.78796" lon="3.37335">
        <ele>668.16703689073</ele>
        <time>2017-06-12T12:40:04Z</time>
      </trkpt>
      <trkpt lat="43.78794" lon="3.37248">
        <ele>670.00123376914</ele>
        <time>2017-06-12T12:41:00Z</time>
      </trkpt>
      <trkpt lat="43.78794" lon="3.37244">
        <ele>670.00123376914</ele>
        <time>2017-06-12T12:41:05Z</time>
      </trkpt>
      <trkpt lat="43.78793" lon="3.3723">
        <ele>671.37063482003</ele>
        <time>2017-06-12T12:41:15Z</time>
      </trkpt>
      <trkpt lat="43.78792" lon="3.37221">
        <ele>671.37063482003</ele>
        <time>2017-06-12T12:41:20Z</time>
      </trkpt>
      <trkpt lat="43.78791" lon="3.37212">
        <ele>672.37778783496</ele>
        <time>2017-06-12T12:41:25Z</time>
      </trkpt>
      <trkpt lat="43.78738" lon="3.37118">
        <ele>671.54802972951</ele>
        <time>2017-06-12T12:42:58Z</time>
      </trkpt>
      <trkpt lat="43.78724" lon="3.3711">
        <ele>670.48898056708</ele>
        <time>2017-06-12T12:42:58Z</time>
      </trkpt>
      <trkpt lat="43.7865" lon="3.37065">
        <ele>668.75981925089</ele>
        <time>2017-06-12T12:44:02Z</time>
      </trkpt>
      <trkpt lat="43.7865" lon="3.37063">
        <ele>668.75981925089</ele>
        <time>2017-06-12T12:44:05Z</time>
      </trkpt>
      <trkpt lat="43.7865" lon="3.37066">
        <ele>668.75981925089</ele>
        <time>2017-06-12T12:44:10Z</time>
      </trkpt>
      <trkpt lat="43.7865" lon="3.37066">
        <ele>668.75981925089</ele>
        <time>2017-06-12T12:44:15Z</time>
      </trkpt>
      <trkpt lat="43.78649" lon="3.37066">
        <ele>668.75981925089</ele>
        <time>2017-06-12T12:44:25Z</time>
      </trkpt>
      <trkpt lat="43.78643" lon="3.37066">
        <ele>667.5681160759</ele>
        <time>2017-06-12T12:44:30Z</time>
      </trkpt>
      <trkpt lat="43.78638" lon="3.37068">
        <ele>667.5681160759</ele>
        <time>2017-06-12T12:44:35Z</time>
      </trkpt>
      <trkpt lat="43.78632" lon="3.37069">
        <ele>666.21549053225</ele>
        <time>2017-06-12T12:44:40Z</time>
      </trkpt>
      <trkpt lat="43.78626" lon="3.37057">
        <ele>664.41563984398</ele>
        <time>2017-06-12T12:45:00Z</time>
      </trkpt>
      <trkpt lat="43.78638" lon="3.37048">
        <ele>662.2792629722</ele>
        <time>2017-06-12T12:45:25Z</time>
      </trkpt>
      <trkpt lat="43.78653" lon="3.37038">
        <ele>660.05398967595</ele>
        <time>2017-06-12T12:45:25Z</time>
      </trkpt>
      <trkpt lat="43.78641" lon="3.37031">
        <ele>657.56598458272</ele>
        <time>2017-06-12T12:45:39Z</time>
      </trkpt>
      <trkpt lat="43.78639" lon="3.37031">
        <ele>657.56598458272</ele>
        <time>2017-06-12T12:45:40Z</time>
      </trkpt>
      <trkpt lat="43.78597" lon="3.37033">
        <ele>654.59724117291</ele>
        <time>2017-06-12T12:46:27Z</time>
      </trkpt>
      <trkpt lat="43.78558" lon="3.37049">
        <ele>650.75971541031</ele>
        <time>2017-06-12T12:47:08Z</time>
      </trkpt>
      <trkpt lat="43.78493" lon="3.37056">
        <ele>646.37354764307</ele>
        <time>2017-06-12T12:48:07Z</time>
      </trkpt>
      <trkpt lat="43.78464" lon="3.37037">
        <ele>642.58704989385</ele>
        <time>2017-06-12T12:49:00Z</time>
      </trkpt>
      <trkpt lat="43.78461" lon="3.37037">
        <ele>642.58704989385</ele>
        <time>2017-06-12T12:49:00Z</time>
      </trkpt>
      <trkpt lat="43.78487" lon="3.37076">
        <ele>639.06448808413</ele>
        <time>2017-06-12T12:49:40Z</time>
      </trkpt>
      <trkpt lat="43.78502" lon="3.37095">
        <ele>635.79652964346</ele>
        <time>2017-06-12T12:49:57Z</time>
      </trkpt>
      <trkpt lat="43.78519" lon="3.37121">
        <ele>632.6583506934</ele>
        <time>2017-06-12T12:50:35Z</time>
      </trkpt>
      <trkpt lat="43.78513" lon="3.37118">
        <ele>632.6583506934</ele>
        <time>2017-06-12T12:50:36Z</time>
      </trkpt>
      <trkpt lat="43.78493" lon="3.37106">
        <ele>629.41845465116</ele>
        <time>2017-06-12T12:51:02Z</time>
      </trkpt>
      <trkpt lat="43.7849" lon="3.37104">
        <ele>629.41845465116</ele>
        <time>2017-06-12T12:51:02Z</time>
      </trkpt>
      <trkpt lat="43.78481" lon="3.37102">
        <ele>626.36682336551</ele>
        <time>2017-06-12T12:51:19Z</time>
      </trkpt>
      <trkpt lat="43.78473" lon="3.371">
        <ele>626.36682336551</ele>
        <time>2017-06-12T12:51:19Z</time>
      </trkpt>
      <trkpt lat="43.78416" lon="3.37071">
        <ele>622.92114027673</ele>
        <time>2017-06-12T12:52:24Z</time>
      </trkpt>
      <trkpt lat="43.78405" lon="3.37068">
        <ele>619.43623797572</ele>
        <time>2017-06-12T12:52:24Z</time>
      </trkpt>
      <trkpt lat="43.78384" lon="3.37065">
        <ele>615.93812879167</ele>
        <time>2017-06-12T12:53:08Z</time>
      </trkpt>
      <trkpt lat="43.78378" lon="3.37064">
        <ele>615.93812879167</ele>
        <time>2017-06-12T12:53:08Z</time>
      </trkpt>
      <trkpt lat="43.78346" lon="3.37069">
        <ele>612.52276779455</ele>
        <time>2017-06-12T12:53:35Z</time>
      </trkpt>
      <trkpt lat="43.78345" lon="3.37069">
        <ele>612.52276779455</ele>
        <time>2017-06-12T12:53:35Z</time>
      </trkpt>
      <trkpt lat="43.78342" lon="3.3707">
        <ele>612.52276779455</ele>
        <time>2017-06-12T12:53:40Z</time>
      </trkpt>
      <trkpt lat="43.78294" lon="3.37064">
        <ele>609.03359376813</ele>
        <time>2017-06-12T12:54:31Z</time>
      </trkpt>
      <trkpt lat="43.78285" lon="3.37064">
        <ele>605.84430178216</ele>
        <time>2017-06-12T12:54:31Z</time>
      </trkpt>
      <trkpt lat="43.78265" lon="3.37061">
        <ele>602.68036045228</ele>
        <time>2017-06-12T12:54:51Z</time>
      </trkpt>
      <trkpt lat="43.7825" lon="3.37063">
        <ele>599.44559839339</ele>
        <time>2017-06-12T12:55:07Z</time>
      </trkpt>
      <trkpt lat="43.78233" lon="3.37063">
        <ele>596.43994914409</ele>
        <time>2017-06-12T12:55:28Z</time>
      </trkpt>
      <trkpt lat="43.78228" lon="3.37063">
        <ele>596.43994914409</ele>
        <time>2017-06-12T12:55:32Z</time>
      </trkpt>
      <trkpt lat="43.78198" lon="3.37047">
        <ele>593.50807953953</ele>
        <time>2017-06-12T12:56:02Z</time>
      </trkpt>
      <trkpt lat="43.78146" lon="3.37031">
        <ele>588.93479024282</ele>
        <time>2017-06-12T12:56:52Z</time>
      </trkpt>
      <trkpt lat="43.78146" lon="3.37031">
        <ele>588.93479024282</ele>
        <time>2017-06-12T12:56:52Z</time>
      </trkpt>
      <trkpt lat="43.78139" lon="3.37019">
        <ele>584.29125888349</ele>
        <time>2017-06-12T12:57:08Z</time>
      </trkpt>
      <trkpt lat="43.78133" lon="3.37013">
        <ele>584.29125888349</ele>
        <time>2017-06-12T12:57:08Z</time>
      </trkpt>
      <trkpt lat="43.78106" lon="3.37005">
        <ele>578.75622087437</ele>
        <time>2017-06-12T12:57:35Z</time>
      </trkpt>
      <trkpt lat="43.78065" lon="3.36989">
        <ele>572.69503473744</ele>
        <time>2017-06-12T12:58:17Z</time>
      </trkpt>
      <trkpt lat="43.7806" lon="3.36983">
        <ele>572.69503473744</ele>
        <time>2017-06-12T12:58:17Z</time>
      </trkpt>
      <trkpt lat="43.78058" lon="3.36978">
        <ele>566.92297593566</ele>
        <time>2017-06-12T12:58:33Z</time>
      </trkpt>
      <trkpt lat="43.78044" lon="3.36964">
        <ele>561.54581963657</ele>
        <time>2017-06-12T12:58:43Z</time>
      </trkpt>
      <trkpt lat="43.78034" lon="3.36963">
        <ele>556.54486372844</ele>
        <time>2017-06-12T12:58:51Z</time>
      </trkpt>
      <trkpt lat="43.7801" lon="3.3696">
        <ele>551.6275950913</ele>
        <time>2017-06-12T12:59:30Z</time>
      </trkpt>
      <trkpt lat="43.78003" lon="3.3696">
        <ele>551.6275950913</ele>
        <time>2017-06-12T12:59:32Z</time>
      </trkpt>
      <trkpt lat="43.77988" lon="3.3696">
        <ele>547.15652099931</ele>
        <time>2017-06-12T12:59:59Z</time>
      </trkpt>
      <trkpt lat="43.77981" lon="3.36956">
        <ele>547.15652099931</ele>
        <time>2017-06-12T12:59:59Z</time>
      </trkpt>
      <trkpt lat="43.7795" lon="3.36955">
        <ele>542.21217743562</ele>
        <time>2017-06-12T13:00:30Z</time>
      </trkpt>
      <trkpt lat="43.77907" lon="3.36943">
        <ele>537.28388330994</ele>
        <time>2017-06-12T13:01:12Z</time>
      </trkpt>
      <trkpt lat="43.77885" lon="3.3694">
        <ele>532.50760320271</ele>
        <time>2017-06-12T13:01:34Z</time>
      </trkpt>
      <trkpt lat="43.77884" lon="3.3694">
        <ele>532.50760320271</ele>
        <time>2017-06-12T13:01:35Z</time>
      </trkpt>
      <trkpt lat="43.77874" lon="3.36937">
        <ele>527.89328196746</ele>
        <time>2017-06-12T13:01:56Z</time>
      </trkpt>
      <trkpt lat="43.77856" lon="3.36928">
        <ele>523.17555552714</ele>
        <time>2017-06-12T13:02:08Z</time>
      </trkpt>
      <trkpt lat="43.77799" lon="3.3692">
        <ele>517.15739941801</ele>
        <time>2017-06-12T13:03:01Z</time>
      </trkpt>
      <trkpt lat="43.77724" lon="3.36891">
        <ele>510.34710529197</ele>
        <time>2017-06-12T13:04:10Z</time>
      </trkpt>
      <trkpt lat="43.77698" lon="3.36888">
        <ele>503.90927035299</ele>
        <time>2017-06-12T13:04:30Z</time>
      </trkpt>
      <trkpt lat="43.77687" lon="3.3688">
        <ele>498.01368102951</ele>
        <time>2017-06-12T13:04:50Z</time>
      </trkpt>
      <trkpt lat="43.77685" lon="3.36878">
        <ele>498.01368102951</ele>
        <time>2017-06-12T13:04:51Z</time>
      </trkpt>
      <trkpt lat="43.77673" lon="3.36875">
        <ele>492.5708228904</ele>
        <time>2017-06-12T13:05:05Z</time>
      </trkpt>
      <trkpt lat="43.77672" lon="3.36875">
        <ele>492.5708228904</ele>
        <time>2017-06-12T13:05:05Z</time>
      </trkpt>
      <trkpt lat="43.77635" lon="3.36858">
        <ele>486.53062222229</ele>
        <time>2017-06-12T13:05:57Z</time>
      </trkpt>
      <trkpt lat="43.77609" lon="3.36855">
        <ele>481.1840462813</ele>
        <time>2017-06-12T13:06:15Z</time>
      </trkpt>
      <trkpt lat="43.77606" lon="3.36852">
        <ele>481.1840462813</ele>
        <time>2017-06-12T13:06:20Z</time>
      </trkpt>
      <trkpt lat="43.77587" lon="3.36851">
        <ele>476.42796983667</ele>
        <time>2017-06-12T13:06:37Z</time>
      </trkpt>
      <trkpt lat="43.77577" lon="3.36847">
        <ele>472.30899402664</ele>
        <time>2017-06-12T13:06:38Z</time>
      </trkpt>
      <trkpt lat="43.77557" lon="3.36847">
        <ele>468.24853931433</ele>
        <time>2017-06-12T13:07:00Z</time>
      </trkpt>
      <trkpt lat="43.77551" lon="3.36845">
        <ele>468.24853931433</ele>
        <time>2017-06-12T13:07:00Z</time>
      </trkpt>
      <trkpt lat="43.77482" lon="3.36828">
        <ele>463.13364067684</ele>
        <time>2017-06-12T13:07:58Z</time>
      </trkpt>
      <trkpt lat="43.77399" lon="3.36801">
        <ele>457.39130575262</ele>
        <time>2017-06-12T13:09:24Z</time>
      </trkpt>
      <trkpt lat="43.77394" lon="3.368">
        <ele>457.39130575262</ele>
        <time>2017-06-12T13:09:28Z</time>
      </trkpt>
      <trkpt lat="43.77385" lon="3.368">
        <ele>452.24011402357</ele>
        <time>2017-06-12T13:09:35Z</time>
      </trkpt>
      <trkpt lat="43.77337" lon="3.36791">
        <ele>447.40934757245</ele>
        <time>2017-06-12T13:10:12Z</time>
      </trkpt>
      <trkpt lat="43.77321" lon="3.36786">
        <ele>443.16584154381</ele>
        <time>2017-06-12T13:10:30Z</time>
      </trkpt>
      <trkpt lat="43.77312" lon="3.36785">
        <ele>439.52438158595</ele>
        <time>2017-06-12T13:10:31Z</time>
      </trkpt>
      <trkpt lat="43.77298" lon="3.36781">
        <ele>436.41030544168</ele>
        <time>2017-06-12T13:10:41Z</time>
      </trkpt>
      <trkpt lat="43.7728" lon="3.36752">
        <ele>432.47017848271</ele>
        <time>2017-06-12T13:11:03Z</time>
      </trkpt>
      <trkpt lat="43.77275" lon="3.36752">
        <ele>432.47017848271</ele>
        <time>2017-06-12T13:11:07Z</time>
      </trkpt>
      <trkpt lat="43.77264" lon="3.3675">
        <ele>429.00290536062</ele>
        <time>2017-06-12T13:11:20Z</time>
      </trkpt>
      <trkpt lat="43.77252" lon="3.36731">
        <ele>425.58204292556</ele>
        <time>2017-06-12T13:11:44Z</time>
      </trkpt>
      <trkpt lat="43.77247" lon="3.36723">
        <ele>425.58204292556</ele>
        <time>2017-06-12T13:11:46Z</time>
      </trkpt>
      <trkpt lat="43.77204" lon="3.36654">
        <ele>420.68814496516</ele>
        <time>2017-06-12T13:12:28Z</time>
      </trkpt>
      <trkpt lat="43.77202" lon="3.36652">
        <ele>420.68814496516</ele>
        <time>2017-06-12T13:12:30Z</time>
      </trkpt>
      <trkpt lat="43.77174" lon="3.3662">
        <ele>415.65550849979</ele>
        <time>2017-06-12T13:13:00Z</time>
      </trkpt>
      <trkpt lat="43.77154" lon="3.366">
        <ele>410.56780484283</ele>
        <time>2017-06-12T13:13:20Z</time>
      </trkpt>
      <trkpt lat="43.77151" lon="3.36594">
        <ele>410.56780484283</ele>
        <time>2017-06-12T13:13:25Z</time>
      </trkpt>
      <trkpt lat="43.77144" lon="3.36578">
        <ele>405.63231104479</ele>
        <time>2017-06-12T13:13:40Z</time>
      </trkpt>
      <trkpt lat="43.77143" lon="3.36572">
        <ele>405.63231104479</ele>
        <time>2017-06-12T13:13:45Z</time>
      </trkpt>
      <trkpt lat="43.77137" lon="3.36557">
        <ele>401.05496428371</ele>
        <time>2017-06-12T13:13:55Z</time>
      </trkpt>
      <trkpt lat="43.77135" lon="3.3655">
        <ele>401.05496428371</ele>
        <time>2017-06-12T13:14:00Z</time>
      </trkpt>
      <trkpt lat="43.77132" lon="3.36538">
        <ele>396.70843252123</ele>
        <time>2017-06-12T13:14:10Z</time>
      </trkpt>
      <trkpt lat="43.77132" lon="3.36532">
        <ele>396.70843252123</ele>
        <time>2017-06-12T13:14:15Z</time>
      </trkpt>
      <trkpt lat="43.7711" lon="3.36477">
        <ele>391.59492533589</ele>
        <time>2017-06-12T13:14:55Z</time>
      </trkpt>
      <trkpt lat="43.77105" lon="3.36476">
        <ele>391.59492533589</ele>
        <time>2017-06-12T13:15:00Z</time>
      </trkpt>
      <trkpt lat="43.77097" lon="3.36472">
        <ele>386.92486616495</ele>
        <time>2017-06-12T13:15:17Z</time>
      </trkpt>
      <trkpt lat="43.7708" lon="3.36463">
        <ele>382.80966627432</ele>
        <time>2017-06-12T13:15:48Z</time>
      </trkpt>
      <trkpt lat="43.77052" lon="3.36431">
        <ele>378.48626301818</ele>
        <time>2017-06-12T13:15:54Z</time>
      </trkpt>
      <trkpt lat="43.77029" lon="3.36415">
        <ele>374.34341820175</ele>
        <time>2017-06-12T13:16:13Z</time>
      </trkpt>
      <trkpt lat="43.76989" lon="3.36365">
        <ele>369.68876653917</ele>
        <time>2017-06-12T13:17:04Z</time>
      </trkpt>
      <trkpt lat="43.76985" lon="3.3636">
        <ele>369.68876653917</ele>
        <time>2017-06-12T13:17:05Z</time>
      </trkpt>
      <trkpt lat="43.76969" lon="3.36341">
        <ele>365.1071408227</ele>
        <time>2017-06-12T13:17:28Z</time>
      </trkpt>
      <trkpt lat="43.76962" lon="3.36336">
        <ele>365.1071408227</ele>
        <time>2017-06-12T13:17:28Z</time>
      </trkpt>
      <trkpt lat="43.7696" lon="3.36334">
        <ele>361.06811569013</ele>
        <time>2017-06-12T13:17:30Z</time>
      </trkpt>
      <trkpt lat="43.76964" lon="3.36159">
        <ele>354.77712544848</ele>
        <time>2017-06-12T13:19:33Z</time>
      </trkpt>
      <trkpt lat="43.76968" lon="3.36149">
        <ele>354.77712544848</ele>
        <time>2017-06-12T13:19:33Z</time>
      </trkpt>
      <trkpt lat="43.76973" lon="3.36119">
        <ele>348.66624481964</ele>
        <time>2017-06-12T13:19:54Z</time>
      </trkpt>
      <trkpt lat="43.76973" lon="3.36113">
        <ele>348.66624481964</ele>
        <time>2017-06-12T13:20:00Z</time>
      </trkpt>
      <trkpt lat="43.76979" lon="3.36057">
        <ele>342.97079356981</ele>
        <time>2017-06-12T13:20:47Z</time>
      </trkpt>
      <trkpt lat="43.76978" lon="3.36044">
        <ele>337.96524628744</ele>
        <time>2017-06-12T13:20:47Z</time>
      </trkpt>
      <trkpt lat="43.76975" lon="3.36019">
        <ele>333.52724983108</ele>
        <time>2017-06-12T13:21:04Z</time>
      </trkpt>
      <trkpt lat="43.76977" lon="3.35987">
        <ele>329.44092993357</ele>
        <time>2017-06-12T13:21:21Z</time>
      </trkpt>
      <trkpt lat="43.7698" lon="3.35977">
        <ele>329.44092993357</ele>
        <time>2017-06-12T13:21:29Z</time>
      </trkpt>
      <trkpt lat="43.76979" lon="3.35977">
        <ele>329.44092993357</ele>
        <time>2017-06-12T13:21:30Z</time>
      </trkpt>
      <trkpt lat="43.76974" lon="3.35924">
        <ele>325.4620164621</ele>
        <time>2017-06-12T13:22:17Z</time>
      </trkpt>
      <trkpt lat="43.76973" lon="3.35914">
        <ele>325.4620164621</ele>
        <time>2017-06-12T13:22:19Z</time>
      </trkpt>
      <trkpt lat="43.76967" lon="3.3588">
        <ele>321.623256143</ele>
        <time>2017-06-12T13:22:57Z</time>
      </trkpt>
      <trkpt lat="43.76964" lon="3.35872">
        <ele>321.623256143</ele>
        <time>2017-06-12T13:22:57Z</time>
      </trkpt>
      <trkpt lat="43.7696" lon="3.35865">
        <ele>318.18515909008</ele>
        <time>2017-06-12T13:23:09Z</time>
      </trkpt>
      <trkpt lat="43.76932" lon="3.35822">
        <ele>314.43683544257</ele>
        <time>2017-06-12T13:24:00Z</time>
      </trkpt>
      <trkpt lat="43.7693" lon="3.35815">
        <ele>314.43683544257</ele>
        <time>2017-06-12T13:24:03Z</time>
      </trkpt>
      <trkpt lat="43.76923" lon="3.35784">
        <ele>310.48428105245</ele>
        <time>2017-06-12T13:24:28Z</time>
      </trkpt>
      <trkpt lat="43.76925" lon="3.35768">
        <ele>306.88744873235</ele>
        <time>2017-06-12T13:24:28Z</time>
      </trkpt>
      <trkpt lat="43.76941" lon="3.35702">
        <ele>302.86718221178</ele>
        <time>2017-06-12T13:25:25Z</time>
      </trkpt>
      <trkpt lat="43.76932" lon="3.35674">
        <ele>299.316825501</ele>
        <time>2017-06-12T13:25:25Z</time>
      </trkpt>
      <trkpt lat="43.76911" lon="3.3562">
        <ele>295.7369954302</ele>
        <time>2017-06-12T13:26:04Z</time>
      </trkpt>
      <trkpt lat="43.7691" lon="3.35617">
        <ele>295.7369954302</ele>
        <time>2017-06-12T13:26:04Z</time>
      </trkpt>
      <trkpt lat="43.76897" lon="3.35542">
        <ele>291.79482084765</ele>
        <time>2017-06-12T13:26:50Z</time>
      </trkpt>
      <trkpt lat="43.76896" lon="3.35535">
        <ele>291.79482084765</ele>
        <time>2017-06-12T13:26:56Z</time>
      </trkpt>
      <trkpt lat="43.76879" lon="3.35461">
        <ele>287.34147164758</ele>
        <time>2017-06-12T13:27:45Z</time>
      </trkpt>
      <trkpt lat="43.76876" lon="3.35448">
        <ele>283.33578359049</ele>
        <time>2017-06-12T13:27:45Z</time>
      </trkpt>
      <trkpt lat="43.76872" lon="3.35422">
        <ele>279.56971325831</ele>
        <time>2017-06-12T13:28:00Z</time>
      </trkpt>
      <trkpt lat="43.76903" lon="3.35359">
        <ele>275.57607550704</ele>
        <time>2017-06-12T13:28:43Z</time>
      </trkpt>
      <trkpt lat="43.76895" lon="3.35327">
        <ele>271.77295987042</ele>
        <time>2017-06-12T13:29:05Z</time>
      </trkpt>
      <trkpt lat="43.76886" lon="3.35285">
        <ele>268.05729506687</ele>
        <time>2017-06-12T13:29:27Z</time>
      </trkpt>
      <trkpt lat="43.7688" lon="3.35263">
        <ele>264.52074804297</ele>
        <time>2017-06-12T13:29:47Z</time>
      </trkpt>
      <trkpt lat="43.76889" lon="3.35251">
        <ele>261.30546526108</ele>
        <time>2017-06-12T13:29:47Z</time>
      </trkpt>
      <trkpt lat="43.76895" lon="3.35234">
        <ele>258.39821521299</ele>
        <time>2017-06-12T13:30:00Z</time>
      </trkpt>
      <trkpt lat="43.76895" lon="3.35229">
        <ele>258.39821521299</ele>
        <time>2017-06-12T13:30:00Z</time>
      </trkpt>
      <trkpt lat="43.76889" lon="3.35132">
        <ele>255.61302352604</ele>
        <time>2017-06-12T13:31:00Z</time>
      </trkpt>
      <trkpt lat="43.76888" lon="3.35127">
        <ele>255.61302352604</ele>
        <time>2017-06-12T13:31:02Z</time>
      </trkpt>
      <trkpt lat="43.76874" lon="3.351">
        <ele>252.92143619584</ele>
        <time>2017-06-12T13:31:19Z</time>
      </trkpt>
      <trkpt lat="43.76865" lon="3.35091">
        <ele>250.64279236283</ele>
        <time>2017-06-12T13:31:35Z</time>
      </trkpt>
      <trkpt lat="43.76832" lon="3.35087">
        <ele>248.65400023655</ele>
        <time>2017-06-12T13:31:55Z</time>
      </trkpt>
      <trkpt lat="43.76823" lon="3.35081">
        <ele>246.58091541315</ele>
        <time>2017-06-12T13:32:17Z</time>
      </trkpt>
      <trkpt lat="43.76809" lon="3.35062">
        <ele>244.62486569575</ele>
        <time>2017-06-12T13:32:17Z</time>
      </trkpt>
      <trkpt lat="43.76791" lon="3.35039">
        <ele>242.49663333373</ele>
        <time>2017-06-12T13:32:35Z</time>
      </trkpt>
      <trkpt lat="43.76776" lon="3.35011">
        <ele>240.14504395853</ele>
        <time>2017-06-12T13:32:59Z</time>
      </trkpt>
      <trkpt lat="43.76775" lon="3.35004">
        <ele>240.14504395853</ele>
        <time>2017-06-12T13:32:59Z</time>
      </trkpt>
      <trkpt lat="43.76763" lon="3.34973">
        <ele>237.53787469176</ele>
        <time>2017-06-12T13:33:24Z</time>
      </trkpt>
      <trkpt lat="43.7676" lon="3.34964">
        <ele>237.53787469176</ele>
        <time>2017-06-12T13:33:24Z</time>
      </trkpt>
      <trkpt lat="43.7676" lon="3.34963">
        <ele>237.53787469176</ele>
        <time>2017-06-12T13:33:25Z</time>
      </trkpt>
      <trkpt lat="43.76753" lon="3.34941">
        <ele>235.1937688911</ele>
        <time>2017-06-12T13:33:36Z</time>
      </trkpt>
      <trkpt lat="43.76752" lon="3.34935">
        <ele>235.1937688911</ele>
        <time>2017-06-12T13:33:40Z</time>
      </trkpt>
      <trkpt lat="43.76751" lon="3.34926">
        <ele>233.49181922841</ele>
        <time>2017-06-12T13:33:45Z</time>
      </trkpt>
      <trkpt lat="43.76751" lon="3.34917">
        <ele>233.49181922841</ele>
        <time>2017-06-12T13:33:50Z</time>
      </trkpt>
      <trkpt lat="43.76749" lon="3.34909">
        <ele>232.27724944338</ele>
        <time>2017-06-12T13:33:55Z</time>
      </trkpt>
      <trkpt lat="43.76747" lon="3.349">
        <ele>232.27724944338</ele>
        <time>2017-06-12T13:34:00Z</time>
      </trkpt>
      <trkpt lat="43.76749" lon="3.34894">
        <ele>231.3766400496</ele>
        <time>2017-06-12T13:34:05Z</time>
      </trkpt>
      <trkpt lat="43.7675" lon="3.34895">
        <ele>231.3766400496</ele>
        <time>2017-06-12T13:34:10Z</time>
      </trkpt>
    </trkseg>
  </trk>
</gpx>